Observation data for JA Ranch on 04/16/2021      Previous  Date  Next       Current Mesonet Observations  Soil Data  Daily Summary Page  Observations in Plain Language
KPD3 160500Z 11013KT 06/06 A2991 RMK A01 T00640064  RH  100%=      5-min Rain = 0
KPD3 160501Z 11013KT 06/06 A2991 RMK A01 T00640064  RH  100%=      5-min Rain = 0
KPD3 160502Z 11014KT 06/06 A2991 RMK A01 T00640064  RH  100%=      5-min Rain = 0
KPD3 160503Z 11012KT 06/06 A2991 RMK A01 T00640064  RH  100%=      5-min Rain = 0
KPD3 160504Z 11010KT 06/06 A2991 RMK A01 T00640064  RH  100%=      5-min Rain = 0
KPD3 160505Z 11010KT 06/06 A2991 RMK A01 T00640064  RH  100%=      5-min Rain = 0
KPD3 160506Z 11012KT 06/06 A2991 RMK A01 T00640064  RH  100%=      5-min Rain = 0
KPD3 160507Z 11011KT 06/06 A2991 RMK A01 T00640064  RH  100%=      5-min Rain = 0
KPD3 160508Z 11010KT 06/06 A2991 RMK A01 T00640064  RH  100%=      5-min Rain = 0
KPD3 160509Z 11010KT 06/06 A2991 RMK A01 T00640064  RH  100%=      5-min Rain = 0
KPD3 160510Z 11011KT 06/06 A2991 RMK A01 T00640064  RH  100%=      5-min Rain = 0
KPD3 160511Z 11011KT 06/06 A2991 RMK A01 T00640064  RH  100%=      5-min Rain = 0
KPD3 160512Z 10011KT 06/06 A2991 RMK A01 T00640064  RH  100%=      5-min Rain = 0
KPD3 160513Z 11010KT 06/06 A2991 RMK A01 T00640064  RH  100%=      5-min Rain = 0
KPD3 160514Z 11010KT 06/06 A2991 RMK A01 T00640064  RH  100%=      5-min Rain = 0
KPD3 160515Z 10010KT 06/06 A299 RMK A01 T00640064  RH  100%=      5-min Rain = 0
KPD3 160516Z 11009KT 06/06 A299 RMK A01 T00640064  RH  100%=      5-min Rain = 0
KPD3 160517Z 10011KT 06/06 A299 RMK A01 T00640064  RH  100%=      5-min Rain = 0
KPD3 160518Z 11010KT 06/06 A299 RMK A01 T00640064  RH  100%=      5-min Rain = 0
KPD3 160519Z 11011KT 06/06 A299 RMK A01 T00640064  RH  100%=      5-min Rain = 0
KPD3 160520Z 11011KT 06/06 A299 RMK A01 T00640064  RH  100%=      5-min Rain = 0
KPD3 160521Z 11011KT 06/06 A299 RMK A01 T00640064  RH  100%=      5-min Rain = 0
KPD3 160522Z 11012KT 06/06 A299 RMK A01 T00640064  RH  100%=      5-min Rain = 0
KPD3 160523Z 11010KT 06/06 A299 RMK A01 T00640064  RH  100%=      5-min Rain = 0
KPD3 160524Z 11012KT 06/06 A299 RMK A01 T00640064  RH  100%=      5-min Rain = 0
KPD3 160525Z 11010KT 06/06 A299 RMK A01 T00640064  RH  100%=      5-min Rain = 0
KPD3 160526Z 11010KT 06/06 A299 RMK A01 T00640064  RH  100%=      5-min Rain = 0
KPD3 160527Z 11010KT 06/06 A299 RMK A01 T00640064  RH  100%=      5-min Rain = 0
KPD3 160528Z 11010KT 06/06 A299 RMK A01 T00640064  RH  100%=      5-min Rain = 0
KPD3 160529Z 11010KT 06/06 A299 RMK A01 T00640064  RH  100%=      5-min Rain = 0
KPD3 160530Z 11012KT 06/06 A299 RMK A01 T00640064  RH  100%=      5-min Rain = 0
KPD3 160531Z 11011KT 06/06 A299 RMK A01 T00640064  RH  100%=      5-min Rain = 0
KPD3 160532Z 11011KT 06/06 A299 RMK A01 T00640064  RH  100%=      5-min Rain = 0
KPD3 160533Z 11010KT 06/06 A299 RMK A01 T00640064  RH  100%=      5-min Rain = 0
KPD3 160534Z 11011KT 06/06 A299 RMK A01 T00640064  RH  100%=      5-min Rain = 0
KPD3 160535Z 11010KT 06/06 A299 RMK A01 T00640064  RH  100%=      5-min Rain = 0
KPD3 160536Z 11011KT 06/06 A299 RMK A01 T00640064  RH  100%=      5-min Rain = 0
KPD3 160537Z 11011KT 06/06 A299 RMK A01 T00640064  RH  100%=      5-min Rain = 0
KPD3 160538Z 10012KT 06/06 A299 RMK A01 T00640064  RH  100%=      5-min Rain = 0
KPD3 160539Z 11012KT 06/06 A299 RMK A01 T00640064  RH  100%=      5-min Rain = 0
KPD3 160540Z 11010KT 06/06 A299 RMK A01 T00640064  RH  100%=      5-min Rain = 0
KPD3 160541Z 11011KT 06/06 A299 RMK A01 T00640064  RH  100%=      5-min Rain = 0
KPD3 160542Z 11010KT 06/06 A299 RMK A01 T00640064  RH  100%=      5-min Rain = 0
KPD3 160543Z 10010KT 06/06 A299 RMK A01 T00640064  RH  100%=      5-min Rain = 0
KPD3 160544Z 11010KT 06/06 A299 RMK A01 T00640064  RH  100%=      5-min Rain = 0
KPD3 160545Z 11012KT 06/06 A299 RMK A01 T00640064  RH  100%=      5-min Rain = 0
KPD3 160546Z 11011KT 06/06 A299 RMK A01 T00640064  RH  100%=      5-min Rain = 0
KPD3 160547Z 11011KT 06/06 A299 RMK A01 T00640064  RH  100%=      5-min Rain = 0
KPD3 160548Z 11009KT 06/06 A299 RMK A01 T00640064  RH  100%=      5-min Rain = 0
KPD3 160549Z 11011KT 06/06 A299 RMK A01 T00640064  RH  100%=      5-min Rain = 0
KPD3 160550Z 11010KT 06/06 A299 RMK A01 T00640064  RH  100%=      5-min Rain = 0
KPD3 160551Z 11011KT 06/06 A299 RMK A01 T00640064  RH  100%=      5-min Rain = 0
KPD3 160552Z 11011KT 06/06 A299 RMK A01 T00640064  RH  100%=      5-min Rain = 0
KPD3 160553Z 11010KT 06/06 A299 RMK A01 T00640064  RH  100%=      5-min Rain = 0
KPD3 160554Z 12010KT 06/06 A299 RMK A01 T00640064  RH  100%=      5-min Rain = 0
KPD3 160555Z 12009KT 06/06 A299 RMK A01 T00640064  RH  100%=      5-min Rain = 0
KPD3 160556Z 12010KT 06/06 A299 RMK A01 T00640064  RH  100%=      5-min Rain = 0
KPD3 160557Z 11009KT 06/06 A299 RMK A01 T00640064  RH  100%=      5-min Rain = 0
KPD3 160558Z 12010KT 06/06 A299 RMK A01 T00640064  RH  100%=      5-min Rain = 0
KPD3 160559Z 11010KT 06/06 A299 RMK A01 T00640064  RH  100%=      5-min Rain = 0
KPD3 160600Z 11011KT 06/06 A299 RMK A01 T00640064  RH  100%=      5-min Rain = 0
KPD3 160601Z 11012KT 06/06 A299 RMK A01 T00640064  RH  100%=      5-min Rain = 0
KPD3 160602Z 11011KT 06/06 A299 RMK A01 T00640064  RH  100%=      5-min Rain = 0
KPD3 160603Z 11012KT 06/06 A299 RMK A01 T00640064  RH  100%=      5-min Rain = 0
KPD3 160604Z 11012KT 06/06 A299 RMK A01 T00640064  RH  100%=      5-min Rain = 0
KPD3 160605Z 12012KT 06/06 A299 RMK A01 T00640064  RH  100%=      5-min Rain = 0
KPD3 160606Z 12012KT 06/06 A299 RMK A01 T00640064  RH  100%=      5-min Rain = 0
KPD3 160607Z 12011KT 06/06 A299 RMK A01 T00640064  RH  100%=      5-min Rain = 0
KPD3 160608Z 12011KT 06/06 A299 RMK A01 T00640064  RH  100%=      5-min Rain = 0
KPD3 160609Z 12010KT 06/06 A299 RMK A01 T00640064  RH  100%=      5-min Rain = 0
KPD3 160610Z 12010KT 06/06 A299 RMK A01 T00640064  RH  100%=      5-min Rain = 0
KPD3 160611Z 11011KT 06/06 A299 RMK A01 T00640064  RH  100%=      5-min Rain = 0
KPD3 160612Z 12010KT 06/06 A299 RMK A01 T00640064  RH  100%=      5-min Rain = 0
KPD3 160613Z 11010KT 06/06 A299 RMK A01 T00640064  RH  100%=      5-min Rain = 0
KPD3 160614Z 12009KT 06/06 A299 RMK A01 T00640064  RH  100%=      5-min Rain = 0
KPD3 160615Z 12008KT 06/06 A299 RMK A01 T00640064  RH  100%=      5-min Rain = 0
KPD3 160616Z 12007KT 06/06 A299 RMK A01 T00640064  RH  100%=      5-min Rain = 0
KPD3 160617Z 12008KT 06/06 A299 RMK A01 T00640064  RH  100%=      5-min Rain = 0
KPD3 160618Z 11009KT 06/06 A299 RMK A01 T00640064  RH  100%=      5-min Rain = 0
KPD3 160619Z 12010KT 06/06 A299 RMK A01 T00640064  RH  100%=      5-min Rain = 0
KPD3 160620Z 11010KT 06/06 A299 RMK A01 T00640064  RH  100%=      5-min Rain = 0
KPD3 160621Z 11010KT 06/06 A299 RMK A01 T00640064  RH  100%=      5-min Rain = 0
KPD3 160622Z 12009KT 06/06 A299 RMK A01 T00640064  RH  100%=      5-min Rain = 0
KPD3 160623Z 11009KT 06/06 A299 RMK A01 T00640064  RH  100%=      5-min Rain = 0
KPD3 160624Z 12009KT 06/06 A299 RMK A01 T00640064  RH  100%=      5-min Rain = 0
KPD3 160625Z 12007KT 06/06 A299 RMK A01 T00640064  RH  100%=      5-min Rain = 0
KPD3 160626Z 12008KT 06/06 A299 RMK A01 T00640064  RH  100%=      5-min Rain = 0
KPD3 160627Z 11007KT 06/06 A299 RMK A01 T00640064  RH  100%=      5-min Rain = 0
KPD3 160628Z 11009KT 06/06 A299 RMK A01 T00640064  RH  100%=      5-min Rain = 0
KPD3 160629Z 11009KT 06/06 A299 RMK A01 T00640064  RH  100%=      5-min Rain = 0
KPD3 160630Z 11009KT 06/06 A299 RMK A01 T00640064  RH  100%=      5-min Rain = 0
KPD3 160631Z 11008KT 06/06 A299 RMK A01 T00640064  RH  100%=      5-min Rain = 0
KPD3 160632Z 11008KT 06/06 A2991 RMK A01 T00640064  RH  100%=      5-min Rain = 0
KPD3 160633Z 11009KT 06/06 A2991 RMK A01 T00640064  RH  100%=      5-min Rain = 0
KPD3 160634Z 11010KT 06/06 A2991 RMK A01 T00640064  RH  100%=      5-min Rain = 0
KPD3 160635Z 11009KT 06/06 A2991 RMK A01 T00640064  RH  100%=      5-min Rain = 0
KPD3 160636Z 11009KT 06/06 A2991 RMK A01 T00640064  RH  100%=      5-min Rain = 0
KPD3 160637Z 11008KT 06/06 A2991 RMK A01 T00640064  RH  100%=      5-min Rain = 0
KPD3 160638Z 11009KT 06/06 A2991 RMK A01 T00640064  RH  100%=      5-min Rain = 0
KPD3 160639Z 11010KT 06/06 A2991 RMK A01 T00640064  RH  100%=      5-min Rain = 0
KPD3 160640Z 11008KT 06/06 A2991 RMK A01 T00640064  RH  100%=      5-min Rain = 0
KPD3 160641Z 11008KT 06/06 A2991 RMK A01 T00640064  RH  100%=      5-min Rain = 0
KPD3 160642Z 11008KT 07/06 A2991 RMK A01 T00650064  RH  100%=      5-min Rain = 0
KPD3 160643Z 11008KT 06/06 A2992 RMK A01 T00640064  RH  100%=      5-min Rain = 0
KPD3 160644Z 11008KT 06/06 A2992 RMK A01 T00640064  RH  100%=      5-min Rain = 0
KPD3 160645Z 11007KT 06/06 A2992 RMK A01 T00640064  RH  100%=      5-min Rain = 0
KPD3 160646Z 10007KT 06/06 A2992 RMK A01 T00640064  RH  100%=      5-min Rain = 0
KPD3 160647Z 10006KT 06/06 A2992 RMK A01 T00640064  RH  100%=      5-min Rain = 0
KPD3 160648Z 10006KT 07/07 A2992 RMK A01 T00650065  RH  100%=      5-min Rain = 0
KPD3 160649Z 09006KT 07/07 A2992 RMK A01 T00650065  RH  100%=      5-min Rain = 0
KPD3 160650Z 09006KT 07/07 A2992 RMK A01 T00650065  RH  100%=      5-min Rain = 0
KPD3 160651Z 10005KT 07/07 A2992 RMK A01 T00650065  RH  100%=      5-min Rain = 0
KPD3 160652Z 10005KT 07/07 A2992 RMK A01 T00650065  RH  100%=      5-min Rain = 0.01
KPD3 160653Z 10007KT 07/07 A2992 RMK A01 T00650065  RH  100%=      5-min Rain = 0
KPD3 160654Z 10007KT 07/07 A2992 RMK A01 T00650065  RH  100%=      5-min Rain = 0
KPD3 160655Z 11006KT 07/07 A2992 RMK A01 T00650065  RH  100%=      5-min Rain = 0
KPD3 160656Z 11005KT 07/07 A2992 RMK A01 T00650065  RH  100%=      5-min Rain = 0
KPD3 160657Z 10006KT 07/07 A2992 RMK A01 T00650065  RH  100%=      5-min Rain = 0
KPD3 160658Z 10005KT 07/07 A2992 RMK A01 T00650065  RH  100%=      5-min Rain = 0
KPD3 160659Z 10005KT 07/07 A2992 RMK A01 T00650065  RH  100%=      5-min Rain = 0
KPD3 160700Z 10005KT 07/07 A2992 RMK A01 T00650065  RH  100%=      5-min Rain = 0
KPD3 160701Z 10005KT 07/07 A2992 RMK A01 T00650065  RH  100%=      5-min Rain = 0
KPD3 160702Z 09004KT 07/07 A2992 RMK A01 T00650065  RH  100%=      5-min Rain = 0
KPD3 160703Z 09005KT 07/07 A2992 RMK A01 T00650065  RH  100%=      5-min Rain = 0
KPD3 160704Z 08004KT 07/07 A2992 RMK A01 T00650065  RH  100%=      5-min Rain = 0
KPD3 160705Z 07004KT 07/07 A2992 RMK A01 T00650065  RH  100%=      5-min Rain = 0
KPD3 160706Z 07004KT 07/07 A2992 RMK A01 T00650065  RH  100%=      5-min Rain = 0
KPD3 160707Z 08005KT 07/07 A2992 RMK A01 T00650065  RH  100%=      5-min Rain = 0
KPD3 160708Z 07004KT 07/07 A2992 RMK A01 T00650065  RH  100%=      5-min Rain = 0
KPD3 160709Z 08004KT 07/07 A2992 RMK A01 T00650065  RH  100%=      5-min Rain = 0
KPD3 160710Z 05002KT 07/07 A2993 RMK A01 T00650065  RH  100%=      5-min Rain = 0
KPD3 160711Z 06003KT 07/07 A2993 RMK A01 T00650065  RH  100%=      5-min Rain = 0
KPD3 160712Z 06002KT 07/07 A2993 RMK A01 T00660066  RH  100%=      5-min Rain = 0
KPD3 160713Z 08002KT 07/07 A2993 RMK A01 T00650065  RH  100%=      5-min Rain = 0
KPD3 160714Z 06001KT 07/06 A2993 RMK A01 T00650064  RH  100%=      5-min Rain = 0
KPD3 160715Z 05000KT 07/07 A2993 RMK A01 T00650065  RH  100%=      5-min Rain = 0
KPD3 160716Z 00000KT 07/07 A2994 RMK A01 T00650065  RH  100%=      5-min Rain = 0
KPD3 160717Z 04000KT 07/07 A2994 RMK A01 T00650065  RH  100%=      5-min Rain = 0
KPD3 160718Z 07001KT 07/07 A2993 RMK A01 T00650065  RH  100%=      5-min Rain = 0
KPD3 160719Z 07001KT 07/07 A2993 RMK A01 T00650065  RH  100%=      5-min Rain = 0
KPD3 160720Z 07002KT 07/07 A2993 RMK A01 T00650065  RH  100%=      5-min Rain = 0
KPD3 160721Z 08002KT 07/07 A2993 RMK A01 T00650065  RH  100%=      5-min Rain = 0.01
KPD3 160722Z 07001KT 07/07 A2993 RMK A01 T00650065  RH  100%=      5-min Rain = 0
KPD3 160723Z 05001KT 07/07 A2993 RMK A01 T00650065  RH  100%=      5-min Rain = 0
KPD3 160724Z 02001KT 07/07 A2993 RMK A01 T00650065  RH  100%=      5-min Rain = 0
KPD3 160725Z 35002KT 07/07 A2994 RMK A01 T00650065  RH  100%=      5-min Rain = 0
KPD3 160726Z 34002KT 07/07 A2994 RMK A01 T00660066  RH  100%=      5-min Rain = 0
KPD3 160727Z 34003KT 07/07 A2994 RMK A01 T00660066  RH  100%=      5-min Rain = 0
KPD3 160728Z 34003KT 07/07 A2994 RMK A01 T00660066  RH  100%=      5-min Rain = 0
KPD3 160729Z 35002KT 07/07 A2994 RMK A01 T00660066  RH  100%=      5-min Rain = 0
KPD3 160730Z 35003KT 07/07 A2994 RMK A01 T00660066  RH  100%=      5-min Rain = 0
KPD3 160731Z 00002KT 07/07 A2994 RMK A01 T00660066  RH  100%=      5-min Rain = 0
KPD3 160732Z 35003KT 07/07 A2994 RMK A01 T00660066  RH  100%=      5-min Rain = 0
KPD3 160733Z 35003KT 07/07 A2994 RMK A01 T00660066  RH  100%=      5-min Rain = 0
KPD3 160734Z 34004KT 07/07 A2994 RMK A01 T00660066  RH  100%=      5-min Rain = 0
KPD3 160735Z 35004KT 07/07 A2994 RMK A01 T00660066  RH  100%=      5-min Rain = 0
KPD3 160736Z 35005KT 07/07 A2994 RMK A01 T00670067  RH  100%=      5-min Rain = 0.01
KPD3 160737Z 35004KT 07/07 A2994 RMK A01 T00670067  RH  100%=      5-min Rain = 0
KPD3 160738Z 35005KT 07/07 A2994 RMK A01 T00670067  RH  100%=      5-min Rain = 0
KPD3 160739Z 35005KT 07/07 A2994 RMK A01 T00670067  RH  100%=      5-min Rain = 0
KPD3 160740Z 35005KT 07/07 A2994 RMK A01 T00670067  RH  100%=      5-min Rain = 0
KPD3 160741Z 35005KT 07/07 A2994 RMK A01 T00670067  RH  100%=      5-min Rain = 0
KPD3 160742Z 35005KT 07/07 A2994 RMK A01 T00670067  RH  100%=      5-min Rain = 0
KPD3 160743Z 01005KT 07/07 A2993 RMK A01 T00670067  RH  100%=      5-min Rain = 0
KPD3 160744Z 01005KT 07/07 A2993 RMK A01 T00670067  RH  100%=      5-min Rain = 0
KPD3 160745Z 01005KT 07/07 A2993 RMK A01 T00670067  RH  100%=      5-min Rain = 0.01
KPD3 160746Z 01004KT 07/07 A2993 RMK A01 T00670067  RH  100%=      5-min Rain = 0
KPD3 160747Z 35004KT 07/07 A2993 RMK A01 T00670067  RH  100%=      5-min Rain = 0
KPD3 160748Z 35005KT 07/07 A2993 RMK A01 T00660066  RH  100%=      5-min Rain = 0
KPD3 160749Z 35005KT 07/07 A2993 RMK A01 T00670067  RH  100%=      5-min Rain = 0
KPD3 160750Z 35006KT 07/07 A2993 RMK A01 T00670067  RH  100%=      5-min Rain = 0
KPD3 160751Z 34005KT 07/07 A2994 RMK A01 T00670067  RH  100%=      5-min Rain = 0
KPD3 160752Z 34005KT 07/07 A2994 RMK A01 T00670067  RH  100%=      5-min Rain = 0
KPD3 160753Z 34006KT 07/07 A2994 RMK A01 T00670067  RH  100%=      5-min Rain = 0
KPD3 160754Z 34005KT 07/07 A2994 RMK A01 T00670067  RH  100%=      5-min Rain = 0
KPD3 160755Z 35006KT 07/07 A2994 RMK A01 T00680068  RH  100%=      5-min Rain = 0
KPD3 160756Z 34007KT 07/07 A2994 RMK A01 T00670067  RH  100%=      5-min Rain = 0
KPD3 160757Z 34006KT 07/07 A2994 RMK A01 T00680067  RH  100%=      5-min Rain = 0
KPD3 160758Z 34006KT 07/07 A2994 RMK A01 T00680068  RH  100%=      5-min Rain = 0
KPD3 160759Z 34007KT 07/07 A2994 RMK A01 T00680068  RH  100%=      5-min Rain = 0
KPD3 160800Z 34007KT 07/07 A2994 RMK A01 T00680068  RH  100%=      5-min Rain = 0
KPD3 160801Z 34007KT 07/07 A2994 RMK A01 T00680068  RH  100%=      5-min Rain = 0
KPD3 160802Z 34007KT 07/07 A2994 RMK A01 T00680067  RH  100%=      5-min Rain = 0
KPD3 160803Z 34006KT 07/07 A2994 RMK A01 T00680068  RH  100%=      5-min Rain = 0
KPD3 160804Z 36005KT 07/07 A2994 RMK A01 T00680068  RH  100%=      5-min Rain = 0
KPD3 160805Z 35004KT 07/07 A2994 RMK A01 T00680068  RH  100%=      5-min Rain = 0
KPD3 160806Z 35005KT 07/07 A2994 RMK A01 T00680068  RH  100%=      5-min Rain = 0
KPD3 160807Z 35004KT 07/07 A2994 RMK A01 T00680068  RH  100%=      5-min Rain = 0
KPD3 160808Z 35005KT 07/07 A2994 RMK A01 T00680068  RH  100%=      5-min Rain = 0
KPD3 160809Z 35006KT 07/07 A2993 RMK A01 T00680068  RH  100%=      5-min Rain = 0
KPD3 160810Z 35004KT 07/07 A2993 RMK A01 T00680068  RH  100%=      5-min Rain = 0
KPD3 160811Z 36005KT 07/07 A2993 RMK A01 T00680068  RH  100%=      5-min Rain = 0
KPD3 160812Z 00005KT 07/07 A2993 RMK A01 T00680068  RH  100%=      5-min Rain = 0
KPD3 160813Z 00006KT 07/07 A2993 RMK A01 T00680068  RH  100%=      5-min Rain = 0
KPD3 160814Z 36006KT 07/07 A2993 RMK A01 T00680068  RH  100%=      5-min Rain = 0
KPD3 160815Z 35007KT 07/07 A2993 RMK A01 T00680068  RH  100%=      5-min Rain = 0
KPD3 160816Z 36006KT 07/07 A2993 RMK A01 T00680068  RH  100%=      5-min Rain = 0
KPD3 160817Z 35006KT 07/07 A2993 RMK A01 T00680068  RH  100%=      5-min Rain = 0
KPD3 160818Z 36006KT 07/07 A2993 RMK A01 T00680068  RH  100%=      5-min Rain = 0
KPD3 160819Z 36005KT 07/07 A2993 RMK A01 T00690069  RH  100%=      5-min Rain = 0
KPD3 160820Z 35005KT 07/07 A2993 RMK A01 T00690069  RH  100%=      5-min Rain = 0
KPD3 160821Z 36005KT 07/07 A2993 RMK A01 T00690069  RH  100%=      5-min Rain = 0
KPD3 160822Z 00005KT 07/07 A2993 RMK A01 T00680068  RH  100%=      5-min Rain = 0
KPD3 160823Z 00004KT 07/07 A2993 RMK A01 T00690069  RH  100%=      5-min Rain = 0
KPD3 160824Z 00004KT 07/07 A2993 RMK A01 T00690069  RH  100%=      5-min Rain = 0
KPD3 160825Z 00005KT 07/07 A2993 RMK A01 T00690069  RH  100%=      5-min Rain = 0
KPD3 160826Z 00005KT 07/07 A2993 RMK A01 T00690069  RH  100%=      5-min Rain = 0
KPD3 160827Z 00004KT 07/07 A2993 RMK A01 T00690069  RH  100%=      5-min Rain = 0
KPD3 160828Z 00005KT 07/07 A2993 RMK A01 T00690069  RH  100%=      5-min Rain = 0
KPD3 160829Z 36007KT 07/07 A2993 RMK A01 T00690069  RH  100%=      5-min Rain = 0
KPD3 160830Z 00007KT 07/07 A2993 RMK A01 T00690069  RH  100%=      5-min Rain = 0
KPD3 160831Z 00006KT 07/07 A2993 RMK A01 T00690069  RH  100%=      5-min Rain = 0
KPD3 160832Z 00007KT 07/07 A2993 RMK A01 T00690069  RH  100%=      5-min Rain = 0
KPD3 160833Z 01007KT 07/07 A2993 RMK A01 T00700070  RH  100%=      5-min Rain = 0
KPD3 160834Z 01007KT 07/07 A2993 RMK A01 T00690069  RH  100%=      5-min Rain = 0
KPD3 160835Z 01007KT 07/07 A2993 RMK A01 T00690069  RH  100%=      5-min Rain = 0
KPD3 160836Z 01008KT 07/07 A2993 RMK A01 T00690069  RH  100%=      5-min Rain = 0
KPD3 160837Z 00008KT 07/07 A2993 RMK A01 T00690069  RH  100%=      5-min Rain = 0
KPD3 160838Z 01006KT 07/07 A2993 RMK A01 T00680068  RH  100%=      5-min Rain = 0
KPD3 160839Z 01005KT 07/07 A2993 RMK A01 T00680068  RH  100%=      5-min Rain = 0
KPD3 160840Z 01007KT 07/07 A2992 RMK A01 T00680068  RH  100%=      5-min Rain = 0
KPD3 160841Z 01006KT 07/07 A2992 RMK A01 T00690069  RH  100%=      5-min Rain = 0
KPD3 160842Z 00006KT 07/07 A2992 RMK A01 T00680068  RH  100%=      5-min Rain = 0
KPD3 160843Z 01008KT 07/07 A2992 RMK A01 T00690069  RH  100%=      5-min Rain = 0
KPD3 160844Z 01007KT 07/07 A2992 RMK A01 T00680068  RH  100%=      5-min Rain = 0
KPD3 160845Z 01008KT 07/07 A2992 RMK A01 T00680068  RH  100%=      5-min Rain = 0
KPD3 160846Z 01008KT 07/07 A2993 RMK A01 T00680068  RH  100%=      5-min Rain = 0
KPD3 160847Z 01006KT 07/07 A2993 RMK A01 T00690069  RH  100%=      5-min Rain = 0
KPD3 160848Z 01008KT 07/07 A2993 RMK A01 T00690069  RH  100%=      5-min Rain = 0
KPD3 160849Z 01008KT 07/07 A2993 RMK A01 T00680068  RH  100%=      5-min Rain = 0.01
KPD3 160850Z 01007KT 07/07 A2993 RMK A01 T00680068  RH  100%=      5-min Rain = 0
KPD3 160851Z 01005KT 07/07 A2993 RMK A01 T00680068  RH  100%=      5-min Rain = 0
KPD3 160852Z 00008KT 07/07 A2992 RMK A01 T00680068  RH  100%=      5-min Rain = 0
KPD3 160853Z 01008KT 07/07 A2992 RMK A01 T00680068  RH  100%=      5-min Rain = 0
KPD3 160854Z 00007KT 07/07 A2992 RMK A01 T00680067  RH  100%=      5-min Rain = 0
KPD3 160855Z 00008KT 07/07 A2992 RMK A01 T00680067  RH  100%=      5-min Rain = 0
KPD3 160856Z 00008KT 07/07 A2993 RMK A01 T00680067  RH  100%=      5-min Rain = 0
KPD3 160857Z 00008KT 07/07 A2993 RMK A01 T00680067  RH  100%=      5-min Rain = 0
KPD3 160858Z 00008KT 07/07 A2993 RMK A01 T00670067  RH  100%=      5-min Rain = 0
KPD3 160859Z 01007KT 07/07 A2993 RMK A01 T00680067  RH  100%=      5-min Rain = 0
KPD3 160900Z 01007KT 07/07 A2993 RMK A01 T00670067  RH  100%=      5-min Rain = 0
KPD3 160901Z 00007KT 07/07 A2993 RMK A01 T00680067  RH  100%=      5-min Rain = 0
KPD3 160902Z 36007KT 07/07 A2993 RMK A01 T00670067  RH  100%=      5-min Rain = 0
KPD3 160903Z 36007KT 07/07 A2993 RMK A01 T00670067  RH  100%=      5-min Rain = 0
KPD3 160904Z 36008KT 07/07 A2993 RMK A01 T00680067  RH  100%=      5-min Rain = 0
KPD3 160905Z 35008KT 07/07 A2993 RMK A01 T00680067  RH  100%=      5-min Rain = 0
KPD3 160906Z 35006KT 07/07 A2993 RMK A01 T00680067  RH  099%=      5-min Rain = 0
KPD3 160907Z 35007KT 07/07 A2993 RMK A01 T00670067  RH  099%=      5-min Rain = 0
KPD3 160908Z 35008KT 07/07 A2993 RMK A01 T00670066  RH  099%=      5-min Rain = 0
KPD3 160909Z 36007KT 07/07 A2993 RMK A01 T00670066  RH  099%=      5-min Rain = 0
KPD3 160910Z 36007KT 07/07 A2993 RMK A01 T00680067  RH  099%=      5-min Rain = 0
KPD3 160911Z 35006KT 07/07 A2993 RMK A01 T00670066  RH  099%=      5-min Rain = 0
KPD3 160912Z 35006KT 07/07 A2993 RMK A01 T00680067  RH  099%=      5-min Rain = 0
KPD3 160913Z 35007KT 07/07 A2993 RMK A01 T00670066  RH  099%=      5-min Rain = 0
KPD3 160914Z 35007KT 07/07 A2993 RMK A01 T00680066  RH  099%=      5-min Rain = 0
KPD3 160915Z 36007KT 07/07 A2993 RMK A01 T00670066  RH  099%=      5-min Rain = 0
KPD3 160916Z 35007KT 07/07 A2993 RMK A01 T00680066  RH  099%=      5-min Rain = 0
KPD3 160917Z 35006KT 07/07 A2993 RMK A01 T00680066  RH  099%=      5-min Rain = 0
KPD3 160918Z 35006KT 07/07 A2993 RMK A01 T00670066  RH  099%=      5-min Rain = 0
KPD3 160919Z 35007KT 07/07 A2993 RMK A01 T00680066  RH  099%=      5-min Rain = 0
KPD3 160920Z 35007KT 07/07 A2993 RMK A01 T00680066  RH  099%=      5-min Rain = 0
KPD3 160921Z 35006KT 07/07 A2993 RMK A01 T00680066  RH  099%=      5-min Rain = 0
KPD3 160922Z 36008KT 07/07 A2993 RMK A01 T00680067  RH  099%=      5-min Rain = 0
KPD3 160923Z 36007KT 07/07 A2993 RMK A01 T00680066  RH  099%=      5-min Rain = 0
KPD3 160924Z 36008KT 07/07 A2993 RMK A01 T00680066  RH  099%=      5-min Rain = 0
KPD3 160925Z 36007KT 07/07 A2993 RMK A01 T00680066  RH  099%=      5-min Rain = 0
KPD3 160926Z 36006KT 07/07 A2993 RMK A01 T00680066  RH  099%=      5-min Rain = 0
KPD3 160927Z 36005KT 07/07 A2993 RMK A01 T00680066  RH  099%=      5-min Rain = 0
KPD3 160928Z 36005KT 07/07 A2993 RMK A01 T00680066  RH  099%=      5-min Rain = 0
KPD3 160929Z 36006KT 07/07 A2993 RMK A01 T00680066  RH  099%=      5-min Rain = 0
KPD3 160930Z 35006KT 07/07 A2993 RMK A01 T00680066  RH  099%=      5-min Rain = 0
KPD3 160931Z 36006KT 07/07 A2993 RMK A01 T00680066  RH  099%=      5-min Rain = 0
KPD3 160932Z 36006KT 07/07 A2993 RMK A01 T00680066  RH  099%=      5-min Rain = 0
KPD3 160933Z 35005KT 07/07 A2993 RMK A01 T00680066  RH  099%=      5-min Rain = 0
KPD3 160934Z 35006KT 07/07 A2993 RMK A01 T00680066  RH  099%=      5-min Rain = 0
KPD3 160935Z 00005KT 07/07 A2992 RMK A01 T00680066  RH  099%=      5-min Rain = 0
KPD3 160936Z 36005KT 07/07 A2992 RMK A01 T00690066  RH  099%=      5-min Rain = 0
KPD3 160937Z 00005KT 07/07 A2992 RMK A01 T00680066  RH  098%=      5-min Rain = 0
KPD3 160938Z 00006KT 07/07 A2992 RMK A01 T00680066  RH  098%=      5-min Rain = 0
KPD3 160939Z 00004KT 07/07 A2992 RMK A01 T00680066  RH  098%=      5-min Rain = 0
KPD3 160940Z 01003KT 07/07 A2992 RMK A01 T00680066  RH  098%=      5-min Rain = 0
KPD3 160941Z 02003KT 07/07 A2991 RMK A01 T00680066  RH  098%=      5-min Rain = 0
KPD3 160942Z 01003KT 07/07 A2991 RMK A01 T00690066  RH  098%=      5-min Rain = 0
KPD3 160943Z 01004KT 07/07 A2991 RMK A01 T00680066  RH  098%=      5-min Rain = 0
KPD3 160944Z 01004KT 07/07 A2991 RMK A01 T00690066  RH  098%=      5-min Rain = 0
KPD3 160945Z 00004KT 07/07 A2992 RMK A01 T00690066  RH  098%=      5-min Rain = 0
KPD3 160946Z 01004KT 07/07 A2992 RMK A01 T00680066  RH  098%=      5-min Rain = 0
KPD3 160947Z 01004KT 07/07 A2992 RMK A01 T00680066  RH  098%=      5-min Rain = 0
KPD3 160948Z 01004KT 07/07 A2992 RMK A01 T00680066  RH  098%=      5-min Rain = 0
KPD3 160949Z 01005KT 07/07 A2991 RMK A01 T00680066  RH  098%=      5-min Rain = 0
KPD3 160950Z 01004KT 07/07 A2991 RMK A01 T00680066  RH  098%=      5-min Rain = 0
KPD3 160951Z 01004KT 07/07 A2991 RMK A01 T00690066  RH  098%=      5-min Rain = 0
KPD3 160952Z 01004KT 07/07 A2991 RMK A01 T00690066  RH  098%=      5-min Rain = 0
KPD3 160953Z 01005KT 07/07 A2991 RMK A01 T00680066  RH  098%=      5-min Rain = 0
KPD3 160954Z 02004KT 07/07 A2991 RMK A01 T00680066  RH  098%=      5-min Rain = 0
KPD3 160955Z 02005KT 07/07 A2991 RMK A01 T00680066  RH  098%=      5-min Rain = 0
KPD3 160956Z 02004KT 07/07 A2991 RMK A01 T00690066  RH  098%=      5-min Rain = 0
KPD3 160957Z 02004KT 07/07 A2991 RMK A01 T00690066  RH  098%=      5-min Rain = 0
KPD3 160958Z 02004KT 07/07 A2991 RMK A01 T00690066  RH  098%=      5-min Rain = 0
KPD3 160959Z 03004KT 07/07 A2991 RMK A01 T00680066  RH  098%=      5-min Rain = 0
KPD3 161000Z 03003KT 07/07 A2991 RMK A01 T00680066  RH  098%=      5-min Rain = 0
KPD3 161001Z 03003KT 07/07 A2991 RMK A01 T00690066  RH  098%=      5-min Rain = 0
KPD3 161002Z 03003KT 07/07 A2991 RMK A01 T00680066  RH  098%=      5-min Rain = 0
KPD3 161003Z 03002KT 07/07 A2991 RMK A01 T00680066  RH  098%=      5-min Rain = 0
KPD3 161004Z 03002KT 07/07 A2991 RMK A01 T00680066  RH  098%=      5-min Rain = 0
KPD3 161005Z 04002KT 07/07 A2991 RMK A01 T00690066  RH  098%=      5-min Rain = 0
KPD3 161006Z 04003KT 07/07 A2991 RMK A01 T00690066  RH  098%=      5-min Rain = 0
KPD3 161007Z 05002KT 07/07 A299 RMK A01 T00680066  RH  098%=      5-min Rain = 0
KPD3 161008Z 06003KT 07/07 A299 RMK A01 T00680066  RH  098%=      5-min Rain = 0
KPD3 161009Z 07003KT 07/07 A299 RMK A01 T00690066  RH  098%=      5-min Rain = 0
KPD3 161010Z 07002KT 07/07 A299 RMK A01 T00680066  RH  098%=      5-min Rain = 0
KPD3 161011Z 08002KT 07/07 A299 RMK A01 T00680066  RH  098%=      5-min Rain = 0
KPD3 161012Z 09003KT 07/07 A299 RMK A01 T00680066  RH  098%=      5-min Rain = 0
KPD3 161013Z 09003KT 07/07 A299 RMK A01 T00680065  RH  098%=      5-min Rain = 0
KPD3 161014Z 10003KT 07/07 A299 RMK A01 T00680066  RH  098%=      5-min Rain = 0
KPD3 161015Z 10003KT 07/07 A299 RMK A01 T00680065  RH  098%=      5-min Rain = 0
KPD3 161016Z 11003KT 07/07 A2989 RMK A01 T00670065  RH  098%=      5-min Rain = 0
KPD3 161017Z 11003KT 07/07 A2989 RMK A01 T00680065  RH  098%=      5-min Rain = 0
KPD3 161018Z 12003KT 07/06 A2989 RMK A01 T00670064  RH  098%=      5-min Rain = 0
KPD3 161019Z 12003KT 07/06 A2989 RMK A01 T00670064  RH  098%=      5-min Rain = 0
KPD3 161020Z 12004KT 07/06 A2989 RMK A01 T00660063  RH  098%=      5-min Rain = 0
KPD3 161021Z 12004KT 07/06 A2989 RMK A01 T00660063  RH  098%=      5-min Rain = 0
KPD3 161022Z 12003KT 07/06 A2989 RMK A01 T00650062  RH  098%=      5-min Rain = 0
KPD3 161023Z 12004KT 07/06 A2989 RMK A01 T00650061  RH  098%=      5-min Rain = 0
KPD3 161024Z 12003KT 06/06 A2989 RMK A01 T00640061  RH  098%=      5-min Rain = 0
KPD3 161025Z 12003KT 06/06 A2989 RMK A01 T00640060  RH  098%=      5-min Rain = 0
KPD3 161026Z 12003KT 06/06 A2989 RMK A01 T00630060  RH  098%=      5-min Rain = 0
KPD3 161027Z 12003KT 06/06 A2989 RMK A01 T00630059  RH  098%=      5-min Rain = 0
KPD3 161028Z 12004KT 06/06 A2989 RMK A01 T00620059  RH  098%=      5-min Rain = 0
KPD3 161029Z 13004KT 06/06 A2989 RMK A01 T00610058  RH  098%=      5-min Rain = 0
KPD3 161030Z 13003KT 06/06 A2989 RMK A01 T00610058  RH  098%=      5-min Rain = 0
KPD3 161031Z 14003KT 06/06 A2989 RMK A01 T00600056  RH  098%=      5-min Rain = 0
KPD3 161032Z 14003KT 06/06 A2989 RMK A01 T00590056  RH  098%=      5-min Rain = 0
KPD3 161033Z 15003KT 06/06 A2989 RMK A01 T00580056  RH  098%=      5-min Rain = 0
KPD3 161034Z 15003KT 06/06 A2989 RMK A01 T00580055  RH  098%=      5-min Rain = 0
KPD3 161035Z 15003KT 06/06 A2988 RMK A01 T00580056  RH  098%=      5-min Rain = 0
KPD3 161036Z 15004KT 06/06 A2988 RMK A01 T00580056  RH  099%=      5-min Rain = 0
KPD3 161037Z 16004KT 06/06 A2988 RMK A01 T00570055  RH  099%=      5-min Rain = 0
KPD3 161038Z 16004KT 06/05 A2988 RMK A01 T00560054  RH  099%=      5-min Rain = 0
KPD3 161039Z 17004KT 06/05 A2988 RMK A01 T00550053  RH  099%=      5-min Rain = 0
KPD3 161040Z 17005KT 05/05 A2988 RMK A01 T00540052  RH  099%=      5-min Rain = 0
KPD3 161041Z 17005KT 05/05 A2988 RMK A01 T00530051  RH  099%=      5-min Rain = 0
KPD3 161042Z 17006KT 05/05 A2988 RMK A01 T00530051  RH  099%=      5-min Rain = 0
KPD3 161043Z 17006KT 05/05 A2988 RMK A01 T00530051  RH  099%=      5-min Rain = 0
KPD3 161044Z 17005KT 05/05 A2988 RMK A01 T00530051  RH  099%=      5-min Rain = 0
KPD3 161045Z 18005KT 05/05 A2988 RMK A01 T00520051  RH  099%=      5-min Rain = 0
KPD3 161046Z 18004KT 05/05 A2988 RMK A01 T00520051  RH  099%=      5-min Rain = 0
KPD3 161047Z 19003KT 05/05 A2988 RMK A01 T00520051  RH  099%=      5-min Rain = 0
KPD3 161048Z 19002KT 05/05 A2989 RMK A01 T00510050  RH  099%=      5-min Rain = 0
KPD3 161049Z 19002KT 05/05 A2989 RMK A01 T00510050  RH  099%=      5-min Rain = 0
KPD3 161050Z 19001KT 05/05 A2989 RMK A01 T00510050  RH  099%=      5-min Rain = 0
KPD3 161051Z 19001KT 05/05 A2989 RMK A01 T00510050  RH  099%=      5-min Rain = 0
KPD3 161052Z 19001KT 05/05 A2989 RMK A01 T00510050  RH  100%=      5-min Rain = 0
KPD3 161053Z 19000KT 05/05 A2989 RMK A01 T00510050  RH  100%=      5-min Rain = 0
KPD3 161054Z 00000KT 05/05 A2989 RMK A01 T00510050  RH  100%=      5-min Rain = 0
KPD3 161055Z 00000KT 05/05 A2989 RMK A01 T00500050  RH  100%=      5-min Rain = 0
KPD3 161056Z 34000KT 05/05 A2989 RMK A01 T00480047  RH  099%=      5-min Rain = 0
KPD3 161057Z 34002KT 05/05 A2989 RMK A01 T00470046  RH  099%=      5-min Rain = 0
KPD3 161058Z 35002KT 05/05 A2989 RMK A01 T00460045  RH  099%=      5-min Rain = 0
KPD3 161059Z 35002KT 05/05 A2989 RMK A01 T00470046  RH  099%=      5-min Rain = 0
KPD3 161100Z 35002KT 05/05 A2989 RMK A01 T00460046  RH  100%=      5-min Rain = 0
KPD3 161101Z 35003KT 05/05 A299 RMK A01 T00460046  RH  100%=      5-min Rain = 0
KPD3 161102Z 35003KT 05/05 A299 RMK A01 T00470046  RH  100%=      5-min Rain = 0
KPD3 161103Z 35003KT 05/05 A299 RMK A01 T00470047  RH  100%=      5-min Rain = 0
KPD3 161104Z 35003KT 05/05 A299 RMK A01 T00480047  RH  100%=      5-min Rain = 0
KPD3 161105Z 35003KT 05/05 A299 RMK A01 T00480048  RH  100%=      5-min Rain = 0
KPD3 161106Z 00003KT 05/05 A2989 RMK A01 T00480048  RH  100%=      5-min Rain = 0
KPD3 161107Z 01003KT 05/05 A2989 RMK A01 T00480048  RH  100%=      5-min Rain = 0
KPD3 161108Z 01003KT 05/05 A2989 RMK A01 T00480048  RH  100%=      5-min Rain = 0
KPD3 161109Z 36003KT 05/05 A299 RMK A01 T00480048  RH  100%=      5-min Rain = 0
KPD3 161110Z 35004KT 05/05 A299 RMK A01 T00480048  RH  100%=      5-min Rain = 0
KPD3 161111Z 35004KT 05/05 A299 RMK A01 T00490049  RH  100%=      5-min Rain = 0
KPD3 161112Z 35003KT 05/05 A299 RMK A01 T00490049  RH  100%=      5-min Rain = 0
KPD3 161113Z 36003KT 05/05 A2989 RMK A01 T00500050  RH  100%=      5-min Rain = 0
KPD3 161114Z 00003KT 05/05 A2989 RMK A01 T00510050  RH  100%=      5-min Rain = 0
KPD3 161115Z 00004KT 05/05 A299 RMK A01 T00510051  RH  100%=      5-min Rain = 0
KPD3 161116Z 00004KT 05/05 A299 RMK A01 T00520052  RH  100%=      5-min Rain = 0
KPD3 161117Z 01004KT 05/05 A299 RMK A01 T00530053  RH  100%=      5-min Rain = 0
KPD3 161118Z 36004KT 05/05 A299 RMK A01 T00540054  RH  100%=      5-min Rain = 0
KPD3 161119Z 36004KT 06/06 A299 RMK A01 T00550055  RH  100%=      5-min Rain = 0
KPD3 161120Z 36004KT 06/06 A299 RMK A01 T00550055  RH  100%=      5-min Rain = 0
KPD3 161121Z 35005KT 06/06 A299 RMK A01 T00560056  RH  100%=      5-min Rain = 0
KPD3 161122Z 35004KT 06/06 A299 RMK A01 T00570057  RH  100%=      5-min Rain = 0
KPD3 161123Z 34005KT 06/06 A299 RMK A01 T00570057  RH  100%=      5-min Rain = 0
KPD3 161124Z 35004KT 06/06 A299 RMK A01 T00580058  RH  100%=      5-min Rain = 0
KPD3 161125Z 35003KT 06/06 A299 RMK A01 T00590059  RH  100%=      5-min Rain = 0
KPD3 161126Z 34004KT 06/06 A299 RMK A01 T00590059  RH  100%=      5-min Rain = 0
KPD3 161127Z 35004KT 06/06 A2991 RMK A01 T00600060  RH  100%=      5-min Rain = 0
KPD3 161128Z 35005KT 06/06 A2991 RMK A01 T00600060  RH  100%=      5-min Rain = 0
KPD3 161129Z 01004KT 06/06 A2991 RMK A01 T00600060  RH  100%=      5-min Rain = 0
KPD3 161130Z 01003KT 06/06 A2991 RMK A01 T00610061  RH  100%=      5-min Rain = 0
KPD3 161131Z 01004KT 06/06 A2991 RMK A01 T00610061  RH  100%=      5-min Rain = 0
KPD3 161132Z 01004KT 06/06 A2991 RMK A01 T00610061  RH  100%=      5-min Rain = 0
KPD3 161133Z 36004KT 06/06 A2991 RMK A01 T00620062  RH  100%=      5-min Rain = 0
KPD3 161134Z 36004KT 06/06 A2991 RMK A01 T00620062  RH  100%=      5-min Rain = 0
KPD3 161135Z 01004KT 06/06 A2991 RMK A01 T00630063  RH  100%=      5-min Rain = 0
KPD3 161136Z 01005KT 06/06 A2991 RMK A01 T00620062  RH  100%=      5-min Rain = 0
KPD3 161137Z 01005KT 06/06 A2991 RMK A01 T00630062  RH  100%=      5-min Rain = 0
KPD3 161138Z 01005KT 06/06 A2991 RMK A01 T00620062  RH  100%=      5-min Rain = 0
KPD3 161139Z 01007KT 06/06 A2991 RMK A01 T00630062  RH  100%=      5-min Rain = 0
KPD3 161140Z 01007KT 06/06 A2991 RMK A01 T00620062  RH  100%=      5-min Rain = 0
KPD3 161141Z 01006KT 06/06 A299 RMK A01 T00620062  RH  100%=      5-min Rain = 0
KPD3 161142Z 02007KT 06/06 A299 RMK A01 T00620061  RH  099%=      5-min Rain = 0
KPD3 161143Z 02007KT 06/06 A2991 RMK A01 T00620061  RH  099%=      5-min Rain = 0
KPD3 161144Z 02006KT 06/06 A2991 RMK A01 T00630061  RH  099%=      5-min Rain = 0
KPD3 161145Z 02006KT 06/06 A2991 RMK A01 T00630061  RH  099%=      5-min Rain = 0
KPD3 161146Z 02005KT 06/06 A299 RMK A01 T00630061  RH  099%=      5-min Rain = 0
KPD3 161147Z 02006KT 06/06 A299 RMK A01 T00620061  RH  099%=      5-min Rain = 0
KPD3 161148Z 02006KT 06/06 A299 RMK A01 T00620061  RH  099%=      5-min Rain = 0
KPD3 161149Z 02006KT 06/06 A299 RMK A01 T00620060  RH  099%=      5-min Rain = 0
KPD3 161150Z 02007KT 06/06 A299 RMK A01 T00620060  RH  099%=      5-min Rain = 0
KPD3 161151Z 02007KT 06/06 A299 RMK A01 T00620059  RH  098%=      5-min Rain = 0
KPD3 161152Z 02008KT 06/06 A2991 RMK A01 T00610059  RH  098%=      5-min Rain = 0
KPD3 161153Z 02005KT 06/06 A2991 RMK A01 T00610058  RH  098%=      5-min Rain = 0
KPD3 161154Z 02006KT 06/06 A2991 RMK A01 T00610057  RH  098%=      5-min Rain = 0
KPD3 161155Z 02005KT 06/06 A2991 RMK A01 T00610058  RH  098%=      5-min Rain = 0
KPD3 161156Z 01004KT 06/06 A2991 RMK A01 T00610058  RH  098%=      5-min Rain = 0
KPD3 161157Z 01005KT 06/06 A2991 RMK A01 T00610058  RH  098%=      5-min Rain = 0
KPD3 161158Z 01005KT 06/06 A2991 RMK A01 T00600057  RH  098%=      5-min Rain = 0
KPD3 161159Z 01006KT 06/06 A2991 RMK A01 T00600057  RH  098%=      5-min Rain = 0
KPD3 161200Z 00006KT 06/06 A2991 RMK A01 T00600057  RH  098%=      5-min Rain = 0
KPD3 161201Z 01006KT 06/06 A2991 RMK A01 T00600057  RH  098%=      5-min Rain = 0
KPD3 161202Z 01006KT 06/06 A2991 RMK A01 T00600058  RH  098%=      5-min Rain = 0
KPD3 161203Z 01006KT 06/06 A2991 RMK A01 T00600057  RH  098%=      5-min Rain = 0
KPD3 161204Z 02006KT 06/06 A2991 RMK A01 T00600056  RH  098%=      5-min Rain = 0
KPD3 161205Z 00004KT 06/06 A2991 RMK A01 T00590056  RH  098%=      5-min Rain = 0
KPD3 161206Z 35005KT 06/06 A2991 RMK A01 T00590056  RH  098%=      5-min Rain = 0
KPD3 161207Z 36006KT 06/06 A2991 RMK A01 T00590056  RH  098%=      5-min Rain = 0
KPD3 161208Z 00007KT 06/06 A2991 RMK A01 T00590057  RH  098%=      5-min Rain = 0
KPD3 161209Z 01007KT 06/06 A2991 RMK A01 T00590056  RH  098%=      5-min Rain = 0
KPD3 161210Z 01006KT 06/06 A2991 RMK A01 T00590056  RH  098%=      5-min Rain = 0
KPD3 161211Z 00006KT 06/06 A2991 RMK A01 T00580056  RH  098%=      5-min Rain = 0
KPD3 161212Z 35005KT 06/06 A2991 RMK A01 T00580056  RH  098%=      5-min Rain = 0
KPD3 161213Z 35005KT 06/06 A2991 RMK A01 T00580056  RH  098%=      5-min Rain = 0
KPD3 161214Z 34005KT 06/06 A2991 RMK A01 T00590056  RH  098%=      5-min Rain = 0
KPD3 161215Z 34007KT 06/06 A2991 RMK A01 T00590056  RH  098%=      5-min Rain = 0
KPD3 161216Z 34007KT 06/06 A2991 RMK A01 T00590056  RH  098%=      5-min Rain = 0
KPD3 161217Z 35006KT 06/06 A2991 RMK A01 T00580056  RH  098%=      5-min Rain = 0
KPD3 161218Z 34006KT 06/06 A2991 RMK A01 T00590056  RH  098%=      5-min Rain = 0
KPD3 161219Z 00006KT 06/06 A2991 RMK A01 T00580056  RH  098%=      5-min Rain = 0
KPD3 161220Z 00007KT 06/06 A2991 RMK A01 T00580056  RH  098%=      5-min Rain = 0
KPD3 161221Z 01006KT 06/06 A2992 RMK A01 T00590056  RH  098%=      5-min Rain = 0
KPD3 161222Z 01005KT 06/06 A2992 RMK A01 T00580056  RH  098%=      5-min Rain = 0
KPD3 161223Z 00005KT 06/06 A2992 RMK A01 T00580055  RH  098%=      5-min Rain = 0
KPD3 161224Z 01005KT 06/06 A2991 RMK A01 T00580055  RH  098%=      5-min Rain = 0
KPD3 161225Z 01005KT 06/06 A2992 RMK A01 T00580056  RH  098%=      5-min Rain = 0
KPD3 161226Z 01005KT 06/06 A2992 RMK A01 T00580056  RH  098%=      5-min Rain = 0
KPD3 161227Z 00004KT 06/06 A2992 RMK A01 T00580056  RH  099%=      5-min Rain = 0
KPD3 161228Z 01004KT 06/06 A2992 RMK A01 T00580056  RH  099%=      5-min Rain = 0
KPD3 161229Z 36004KT 06/06 A2992 RMK A01 T00590056  RH  099%=      5-min Rain = 0
KPD3 161230Z 34004KT 06/06 A2992 RMK A01 T00590057  RH  099%=      5-min Rain = 0
KPD3 161231Z 35003KT 06/06 A2992 RMK A01 T00590057  RH  099%=      5-min Rain = 0
KPD3 161232Z 35005KT 06/06 A2992 RMK A01 T00600058  RH  099%=      5-min Rain = 0
KPD3 161233Z 35005KT 06/06 A2992 RMK A01 T00600058  RH  099%=      5-min Rain = 0
KPD3 161234Z 35004KT 06/06 A2992 RMK A01 T00600057  RH  099%=      5-min Rain = 0
KPD3 161235Z 35006KT 06/06 A2992 RMK A01 T00600058  RH  099%=      5-min Rain = 0
KPD3 161236Z 36006KT 06/06 A2992 RMK A01 T00590057  RH  099%=      5-min Rain = 0
KPD3 161237Z 35005KT 06/06 A2992 RMK A01 T00590057  RH  098%=      5-min Rain = 0
KPD3 161238Z 36007KT 06/06 A2992 RMK A01 T00600057  RH  099%=      5-min Rain = 0
KPD3 161239Z 35006KT 06/06 A2992 RMK A01 T00600058  RH  099%=      5-min Rain = 0
KPD3 161240Z 35006KT 06/06 A2992 RMK A01 T00600058  RH  099%=      5-min Rain = 0
KPD3 161241Z 34005KT 06/06 A2992 RMK A01 T00610058  RH  099%=      5-min Rain = 0
KPD3 161242Z 34004KT 06/06 A2992 RMK A01 T00600058  RH  098%=      5-min Rain = 0
KPD3 161243Z 35005KT 06/06 A2992 RMK A01 T00600058  RH  098%=      5-min Rain = 0
KPD3 161244Z 34005KT 06/06 A2992 RMK A01 T00600058  RH  098%=      5-min Rain = 0
KPD3 161245Z 35004KT 06/06 A2992 RMK A01 T00600058  RH  098%=      5-min Rain = 0
KPD3 161246Z 34004KT 06/06 A2992 RMK A01 T00610058  RH  098%=      5-min Rain = 0
KPD3 161247Z 35004KT 06/06 A2992 RMK A01 T00610058  RH  098%=      5-min Rain = 0
KPD3 161248Z 00004KT 06/06 A2992 RMK A01 T00610059  RH  098%=      5-min Rain = 0
KPD3 161249Z 01004KT 06/06 A2992 RMK A01 T00620059  RH  098%=      5-min Rain = 0
KPD3 161250Z 01005KT 06/06 A2992 RMK A01 T00610059  RH  098%=      5-min Rain = 0
KPD3 161251Z 01005KT 06/06 A2992 RMK A01 T00620059  RH  098%=      5-min Rain = 0
KPD3 161252Z 01005KT 06/06 A2993 RMK A01 T00610059  RH  098%=      5-min Rain = 0
KPD3 161253Z 00004KT 06/06 A2993 RMK A01 T00610059  RH  098%=      5-min Rain = 0
KPD3 161254Z 00004KT 06/06 A2993 RMK A01 T00610059  RH  098%=      5-min Rain = 0
KPD3 161255Z 01004KT 06/06 A2993 RMK A01 T00610059  RH  098%=      5-min Rain = 0
KPD3 161256Z 00005KT 06/06 A2993 RMK A01 T00610059  RH  099%=      5-min Rain = 0
KPD3 161257Z 00005KT 06/06 A2993 RMK A01 T00610059  RH  098%=      5-min Rain = 0
KPD3 161258Z 00006KT 06/06 A2993 RMK A01 T00610059  RH  098%=      5-min Rain = 0
KPD3 161259Z 00007KT 06/06 A2993 RMK A01 T00610059  RH  098%=      5-min Rain = 0
KPD3 161300Z 00006KT 06/06 A2993 RMK A01 T00610059  RH  098%=      5-min Rain = 0
KPD3 161301Z 00006KT 06/06 A2993 RMK A01 T00610059  RH  099%=      5-min Rain = 0
KPD3 161302Z 36005KT 06/06 A2993 RMK A01 T00610059  RH  099%=      5-min Rain = 0
KPD3 161303Z 01005KT 06/06 A2993 RMK A01 T00620059  RH  099%=      5-min Rain = 0
KPD3 161304Z 01006KT 06/06 A2993 RMK A01 T00620060  RH  099%=      5-min Rain = 0
KPD3 161305Z 01005KT 06/06 A2994 RMK A01 T00620060  RH  099%=      5-min Rain = 0
KPD3 161306Z 01006KT 06/06 A2994 RMK A01 T00610059  RH  099%=      5-min Rain = 0
KPD3 161307Z 01005KT 06/06 A2994 RMK A01 T00620060  RH  099%=      5-min Rain = 0
KPD3 161308Z 01007KT 06/06 A2994 RMK A01 T00620059  RH  099%=      5-min Rain = 0
KPD3 161309Z 00005KT 06/06 A2994 RMK A01 T00620059  RH  099%=      5-min Rain = 0
KPD3 161310Z 00004KT 06/06 A2994 RMK A01 T00620060  RH  099%=      5-min Rain = 0
KPD3 161311Z 00006KT 06/06 A2994 RMK A01 T00630061  RH  099%=      5-min Rain = 0
KPD3 161312Z 00006KT 06/06 A2994 RMK A01 T00630061  RH  099%=      5-min Rain = 0
KPD3 161313Z 00008KT 06/06 A2994 RMK A01 T00630061  RH  099%=      5-min Rain = 0
KPD3 161314Z 35007KT 06/06 A2994 RMK A01 T00620060  RH  099%=      5-min Rain = 0
KPD3 161315Z 36006KT 06/06 A2994 RMK A01 T00620060  RH  099%=      5-min Rain = 0
KPD3 161316Z 36006KT 06/06 A2994 RMK A01 T00620060  RH  098%=      5-min Rain = 0
KPD3 161317Z 35007KT 06/06 A2994 RMK A01 T00620060  RH  098%=      5-min Rain = 0
KPD3 161318Z 00007KT 06/06 A2994 RMK A01 T00620060  RH  098%=      5-min Rain = 0
KPD3 161319Z 01007KT 06/06 A2994 RMK A01 T00620060  RH  098%=      5-min Rain = 0
KPD3 161320Z 01007KT 06/06 A2994 RMK A01 T00620060  RH  098%=      5-min Rain = 0
KPD3 161321Z 00007KT 06/06 A2994 RMK A01 T00620060  RH  098%=      5-min Rain = 0
KPD3 161322Z 00006KT 06/06 A2994 RMK A01 T00620060  RH  098%=      5-min Rain = 0
KPD3 161323Z 00006KT 06/06 A2994 RMK A01 T00620060  RH  098%=      5-min Rain = 0
KPD3 161324Z 00006KT 06/06 A2994 RMK A01 T00620060  RH  098%=      5-min Rain = 0
KPD3 161325Z 35006KT 06/06 A2994 RMK A01 T00620060  RH  099%=      5-min Rain = 0
KPD3 161326Z 00007KT 06/06 A2994 RMK A01 T00620060  RH  099%=      5-min Rain = 0
KPD3 161327Z 00008KT 06/06 A2994 RMK A01 T00630060  RH  099%=      5-min Rain = 0
KPD3 161328Z 35007KT 06/06 A2994 RMK A01 T00630060  RH  098%=      5-min Rain = 0
KPD3 161329Z 35006KT 06/06 A2994 RMK A01 T00630061  RH  098%=      5-min Rain = 0
KPD3 161330Z 35007KT 06/06 A2994 RMK A01 T00630061  RH  098%=      5-min Rain = 0
KPD3 161331Z 36007KT 06/06 A2994 RMK A01 T00630061  RH  098%=      5-min Rain = 0
KPD3 161332Z 36007KT 06/06 A2994 RMK A01 T00640061  RH  098%=      5-min Rain = 0
KPD3 161333Z 01006KT 06/06 A2994 RMK A01 T00640062  RH  098%=      5-min Rain = 0
KPD3 161334Z 36007KT 06/06 A2994 RMK A01 T00640062  RH  098%=      5-min Rain = 0
KPD3 161335Z 36007KT 07/06 A2994 RMK A01 T00650063  RH  098%=      5-min Rain = 0
KPD3 161336Z 36008KT 06/06 A2994 RMK A01 T00640062  RH  098%=      5-min Rain = 0
KPD3 161337Z 00007KT 07/06 A2994 RMK A01 T00650062  RH  098%=      5-min Rain = 0
KPD3 161338Z 36008KT 06/06 A2994 RMK A01 T00640062  RH  098%=      5-min Rain = 0
KPD3 161339Z 00007KT 06/06 A2994 RMK A01 T00640061  RH  098%=      5-min Rain = 0
KPD3 161340Z 36007KT 06/06 A2994 RMK A01 T00640061  RH  098%=      5-min Rain = 0
KPD3 161341Z 01007KT 06/06 A2994 RMK A01 T00640061  RH  098%=      5-min Rain = 0
KPD3 161342Z 00009KT 06/06 A2994 RMK A01 T00640061  RH  098%=      5-min Rain = 0
KPD3 161343Z 01008KT 06/06 A2994 RMK A01 T00640060  RH  098%=      5-min Rain = 0
KPD3 161344Z 01007KT 06/06 A2994 RMK A01 T00640060  RH  098%=      5-min Rain = 0
KPD3 161345Z 01007KT 06/06 A2994 RMK A01 T00630060  RH  098%=      5-min Rain = 0
KPD3 161346Z 36006KT 06/06 A2994 RMK A01 T00640061  RH  098%=      5-min Rain = 0
KPD3 161347Z 36006KT 06/06 A2994 RMK A01 T00640060  RH  098%=      5-min Rain = 0
KPD3 161348Z 35006KT 06/06 A2994 RMK A01 T00640061  RH  098%=      5-min Rain = 0
KPD3 161349Z 35007KT 06/06 A2994 RMK A01 T00640060  RH  097%=      5-min Rain = 0
KPD3 161350Z 35006KT 06/06 A2994 RMK A01 T00640060  RH  097%=      5-min Rain = 0
KPD3 161351Z 35006KT 06/06 A2994 RMK A01 T00640060  RH  097%=      5-min Rain = 0
KPD3 161352Z 36005KT 07/06 A2994 RMK A01 T00650059  RH  097%=      5-min Rain = 0
KPD3 161353Z 34006KT 07/06 A2994 RMK A01 T00650060  RH  097%=      5-min Rain = 0
KPD3 161354Z 33007KT 07/06 A2994 RMK A01 T00660061  RH  097%=      5-min Rain = 0
KPD3 161355Z 34007KT 07/06 A2994 RMK A01 T00660061  RH  097%=      5-min Rain = 0
KPD3 161356Z 34006KT 07/06 A2994 RMK A01 T00660060  RH  096%=      5-min Rain = 0
KPD3 161357Z 34006KT 07/06 A2994 RMK A01 T00660060  RH  096%=      5-min Rain = 0
KPD3 161358Z 35006KT 07/06 A2994 RMK A01 T00660061  RH  096%=      5-min Rain = 0
KPD3 161359Z 35006KT 07/06 A2994 RMK A01 T00670062  RH  096%=      5-min Rain = 0
KPD3 161400Z 34006KT 07/06 A2994 RMK A01 T00680062  RH  096%=      5-min Rain = 0
KPD3 161401Z 34006KT 07/06 A2993 RMK A01 T00680061  RH  095%=      5-min Rain = 0
KPD3 161402Z 34005KT 07/06 A2993 RMK A01 T00680061  RH  096%=      5-min Rain = 0
KPD3 161403Z 32003KT 07/06 A2993 RMK A01 T00680061  RH  095%=      5-min Rain = 0
KPD3 161404Z 33003KT 07/06 A2993 RMK A01 T00680060  RH  095%=      5-min Rain = 0
KPD3 161405Z 33004KT 07/06 A2993 RMK A01 T00670058  RH  094%=      5-min Rain = 0
KPD3 161406Z 34005KT 07/06 A2994 RMK A01 T00670059  RH  094%=      5-min Rain = 0
KPD3 161407Z 35010KT 07/06 A2994 RMK A01 T00680061  RH  095%=      5-min Rain = 0
KPD3 161408Z 34011KT 07/07 A2995 RMK A01 T00700065  RH  096%=      5-min Rain = 0
KPD3 161409Z 35013KT 07/06 A2995 RMK A01 T00700064  RH  096%=      5-min Rain = 0
KPD3 161410Z 36012KT 07/06 A2995 RMK A01 T00700064  RH  096%=      5-min Rain = 0
KPD3 161411Z 00010KT 07/06 A2995 RMK A01 T00700063  RH  096%=      5-min Rain = 0
KPD3 161412Z 01011KT 07/06 A2995 RMK A01 T00690063  RH  096%=      5-min Rain = 0
KPD3 161413Z 01011KT 07/06 A2995 RMK A01 T00680062  RH  096%=      5-min Rain = 0
KPD3 161414Z 35012KT 07/06 A2995 RMK A01 T00680062  RH  096%=      5-min Rain = 0
KPD3 161415Z 35011KT 07/06 A2995 RMK A01 T00670062  RH  096%=      5-min Rain = 0
KPD3 161416Z 35010KT 07/06 A2995 RMK A01 T00670062  RH  096%=      5-min Rain = 0
KPD3 161417Z 35010KT 07/06 A2995 RMK A01 T00670062  RH  096%=      5-min Rain = 0
KPD3 161418Z 35010KT 07/06 A2995 RMK A01 T00680063  RH  097%=      5-min Rain = 0
KPD3 161419Z 35009KT 07/06 A2995 RMK A01 T00670062  RH  096%=      5-min Rain = 0
KPD3 161420Z 34007KT 07/06 A2995 RMK A01 T00680063  RH  097%=      5-min Rain = 0
KPD3 161421Z 34005KT 07/07 A2995 RMK A01 T00700065  RH  097%=      5-min Rain = 0
KPD3 161422Z 33007KT 07/07 A2994 RMK A01 T00710067  RH  097%=      5-min Rain = 0
KPD3 161423Z 34011KT 07/07 A2995 RMK A01 T00710067  RH  097%=      5-min Rain = 0
KPD3 161424Z 34009KT 07/07 A2995 RMK A01 T00710065  RH  096%=      5-min Rain = 0
KPD3 161425Z 35008KT 07/06 A2995 RMK A01 T00710064  RH  096%=      5-min Rain = 0
KPD3 161426Z 36007KT 07/07 A2995 RMK A01 T00710065  RH  096%=      5-min Rain = 0
KPD3 161427Z 36009KT 07/07 A2995 RMK A01 T00710065  RH  096%=      5-min Rain = 0
KPD3 161428Z 36009KT 07/06 A2995 RMK A01 T00710064  RH  096%=      5-min Rain = 0
KPD3 161429Z 35009KT 07/07 A2995 RMK A01 T00710065  RH  096%=      5-min Rain = 0
KPD3 161430Z 34009KT 07/07 A2995 RMK A01 T00710065  RH  096%=      5-min Rain = 0
KPD3 161431Z 34008KT 07/07 A2995 RMK A01 T00710065  RH  096%=      5-min Rain = 0
KPD3 161432Z 34011KT 07/07 A2995 RMK A01 T00710065  RH  096%=      5-min Rain = 0
KPD3 161433Z 35011KT 07/06 A2996 RMK A01 T00710064  RH  095%=      5-min Rain = 0
KPD3 161434Z 36011KT 07/06 A2996 RMK A01 T00710064  RH  096%=      5-min Rain = 0
KPD3 161435Z 36010KT 07/06 A2996 RMK A01 T00700064  RH  096%=      5-min Rain = 0
KPD3 161436Z 36011KT 07/06 A2996 RMK A01 T00700063  RH  096%=      5-min Rain = 0
KPD3 161437Z 36010KT 07/06 A2996 RMK A01 T00700063  RH  096%=      5-min Rain = 0
KPD3 161438Z 00012KT 07/06 A2996 RMK A01 T00690063  RH  096%=      5-min Rain = 0
KPD3 161439Z 01011KT 07/06 A2996 RMK A01 T00690062  RH  095%=      5-min Rain = 0
KPD3 161440Z 01012KT 07/06 A2996 RMK A01 T00680061  RH  095%=      5-min Rain = 0
KPD3 161441Z 00013KT 07/06 A2996 RMK A01 T00680061  RH  095%=      5-min Rain = 0
KPD3 161442Z 00012KT 07/06 A2996 RMK A01 T00680061  RH  096%=      5-min Rain = 0
KPD3 161443Z 36010KT 07/06 A2996 RMK A01 T00680061  RH  095%=      5-min Rain = 0
KPD3 161444Z 00008KT 07/06 A2996 RMK A01 T00680061  RH  096%=      5-min Rain = 0
KPD3 161445Z 00012KT 07/06 A2996 RMK A01 T00690063  RH  096%=      5-min Rain = 0
KPD3 161446Z 00010KT 07/06 A2996 RMK A01 T00690062  RH  095%=      5-min Rain = 0
KPD3 161447Z 00009KT 07/06 A2996 RMK A01 T00690062  RH  095%=      5-min Rain = 0
KPD3 161448Z 01009KT 07/06 A2997 RMK A01 T00690062  RH  095%=      5-min Rain = 0
KPD3 161449Z 36009KT 07/06 A2997 RMK A01 T00690062  RH  095%=      5-min Rain = 0
KPD3 161450Z 35009KT 07/06 A2997 RMK A01 T00690062  RH  095%=      5-min Rain = 0
KPD3 161451Z 35009KT 07/06 A2997 RMK A01 T00700062  RH  095%=      5-min Rain = 0
KPD3 161452Z 36010KT 07/06 A2996 RMK A01 T00700062  RH  095%=      5-min Rain = 0
KPD3 161453Z 00011KT 07/06 A2997 RMK A01 T00700061  RH  094%=      5-min Rain = 0
KPD3 161454Z 00009KT 07/06 A2997 RMK A01 T00700061  RH  094%=      5-min Rain = 0
KPD3 161455Z 35011KT 07/06 A2997 RMK A01 T00700062  RH  095%=      5-min Rain = 0
KPD3 161456Z 00011KT 07/06 A2997 RMK A01 T00700061  RH  094%=      5-min Rain = 0
KPD3 161457Z 36009KT 07/06 A2997 RMK A01 T00700062  RH  094%=      5-min Rain = 0
KPD3 161458Z 01010KT 07/06 A2996 RMK A01 T00710062  RH  094%=      5-min Rain = 0
KPD3 161459Z 01012KT 07/06 A2997 RMK A01 T00710062  RH  094%=      5-min Rain = 0
KPD3 161500Z 01013KT 07/06 A2997 RMK A01 T00710061  RH  094%=      5-min Rain = 0
KPD3 161501Z 36011KT 07/06 A2997 RMK A01 T00710061  RH  093%=      5-min Rain = 0
KPD3 161502Z 00012KT 07/06 A2997 RMK A01 T00710061  RH  093%=      5-min Rain = 0
KPD3 161503Z 01012KT 07/06 A2997 RMK A01 T00710060  RH  093%=      5-min Rain = 0
KPD3 161504Z 00009KT 07/06 A2997 RMK A01 T00710060  RH  093%=      5-min Rain = 0
KPD3 161505Z 36010KT 07/06 A2997 RMK A01 T00710060  RH  093%=      5-min Rain = 0
KPD3 161506Z 00011KT 07/06 A2997 RMK A01 T00720062  RH  093%=      5-min Rain = 0
KPD3 161507Z 00011KT 07/06 A2997 RMK A01 T00710060  RH  093%=      5-min Rain = 0
KPD3 161508Z 00011KT 07/06 A2997 RMK A01 T00710060  RH  093%=      5-min Rain = 0
KPD3 161509Z 01011KT 07/06 A2997 RMK A01 T00720061  RH  093%=      5-min Rain = 0
KPD3 161510Z 00011KT 07/06 A2997 RMK A01 T00720061  RH  093%=      5-min Rain = 0
KPD3 161511Z 36009KT 07/06 A2997 RMK A01 T00720061  RH  093%=      5-min Rain = 0
KPD3 161512Z 36010KT 07/06 A2997 RMK A01 T00720061  RH  093%=      5-min Rain = 0
KPD3 161513Z 35011KT 07/06 A2997 RMK A01 T00730062  RH  093%=      5-min Rain = 0
KPD3 161514Z 35012KT 07/06 A2997 RMK A01 T00730062  RH  093%=      5-min Rain = 0
KPD3 161515Z 35009KT 07/06 A2998 RMK A01 T00730061  RH  092%=      5-min Rain = 0
KPD3 161516Z 35008KT 07/06 A2997 RMK A01 T00740063  RH  093%=      5-min Rain = 0
KPD3 161517Z 01008KT 08/07 A2997 RMK A01 T00750065  RH  094%=      5-min Rain = 0
KPD3 161518Z 00011KT 08/07 A2997 RMK A01 T00760065  RH  093%=      5-min Rain = 0
KPD3 161519Z 01012KT 08/06 A2997 RMK A01 T00760064  RH  092%=      5-min Rain = 0
KPD3 161520Z 00010KT 08/06 A2997 RMK A01 T00750064  RH  092%=      5-min Rain = 0
KPD3 161521Z 00010KT 08/06 A2997 RMK A01 T00750062  RH  092%=      5-min Rain = 0
KPD3 161522Z 36009KT 08/06 A2997 RMK A01 T00750063  RH  092%=      5-min Rain = 0
KPD3 161523Z 36008KT 08/07 A2997 RMK A01 T00750065  RH  093%=      5-min Rain = 0
KPD3 161524Z 36009KT 08/06 A2997 RMK A01 T00750064  RH  093%=      5-min Rain = 0
KPD3 161525Z 36009KT 08/06 A2997 RMK A01 T00750063  RH  092%=      5-min Rain = 0
KPD3 161526Z 00010KT 08/06 A2997 RMK A01 T00750063  RH  092%=      5-min Rain = 0
KPD3 161527Z 00008KT 08/06 A2997 RMK A01 T00750064  RH  093%=      5-min Rain = 0
KPD3 161528Z 36010KT 08/07 A2997 RMK A01 T00750065  RH  093%=      5-min Rain = 0
KPD3 161529Z 00010KT 08/06 A2998 RMK A01 T00750064  RH  093%=      5-min Rain = 0
KPD3 161530Z 00010KT 08/06 A2998 RMK A01 T00750063  RH  092%=      5-min Rain = 0
KPD3 161531Z 35008KT 08/06 A2998 RMK A01 T00750063  RH  092%=      5-min Rain = 0
KPD3 161532Z 01009KT 08/06 A2998 RMK A01 T00750063  RH  093%=      5-min Rain = 0
KPD3 161533Z 36011KT 08/06 A2998 RMK A01 T00750064  RH  093%=      5-min Rain = 0
KPD3 161534Z 01012KT 08/06 A2998 RMK A01 T00750063  RH  092%=      5-min Rain = 0
KPD3 161535Z 36012KT 08/06 A2998 RMK A01 T00750063  RH  092%=      5-min Rain = 0
KPD3 161536Z 35012KT 08/06 A2998 RMK A01 T00750064  RH  093%=      5-min Rain = 0
KPD3 161537Z 35010KT 08/06 A2998 RMK A01 T00750064  RH  093%=      5-min Rain = 0
KPD3 161538Z 35012KT 08/06 A2998 RMK A01 T00750064  RH  093%=      5-min Rain = 0
KPD3 161539Z 35012KT 08/06 A2998 RMK A01 T00750062  RH  092%=      5-min Rain = 0
KPD3 161540Z 35012KT 08/06 A2998 RMK A01 T00750061  RH  091%=      5-min Rain = 0
KPD3 161541Z 35012KT 08/06 A2998 RMK A01 T00750062  RH  091%=      5-min Rain = 0
KPD3 161542Z 35011KT 08/06 A2998 RMK A01 T00750062  RH  092%=      5-min Rain = 0
KPD3 161543Z 36011KT 08/06 A2998 RMK A01 T00750063  RH  092%=      5-min Rain = 0
KPD3 161544Z 35011KT 08/06 A2998 RMK A01 T00760063  RH  092%=      5-min Rain = 0
KPD3 161545Z 35011KT 08/06 A2998 RMK A01 T00770064  RH  092%=      5-min Rain = 0
KPD3 161546Z 34010KT 08/06 A2998 RMK A01 T00770064  RH  092%=      5-min Rain = 0
KPD3 161547Z 34012G17KT 08/07 A2998 RMK A01 T00770065  RH  092%=      5-min Rain = 0
KPD3 161548Z 35016KT 08/06 A2998 RMK A01 T00780064  RH  091%=      5-min Rain = 0
KPD3 161549Z 35014KT 08/06 A2998 RMK A01 T00770063  RH  091%=      5-min Rain = 0
KPD3 161550Z 36014KT 08/06 A2998 RMK A01 T00770063  RH  091%=      5-min Rain = 0
KPD3 161551Z 36014KT 08/06 A2998 RMK A01 T00770063  RH  091%=      5-min Rain = 0
KPD3 161552Z 36013KT 08/06 A2998 RMK A01 T00770062  RH  090%=      5-min Rain = 0
KPD3 161553Z 35009KT 08/07 A2998 RMK A01 T00780065  RH  091%=      5-min Rain = 0
KPD3 161554Z 34009KT 08/07 A2998 RMK A01 T00800069  RH  093%=      5-min Rain = 0
KPD3 161555Z 34014KT 08/07 A2998 RMK A01 T00810068  RH  091%=      5-min Rain = 0
KPD3 161556Z 35013KT 08/06 A2998 RMK A01 T00810064  RH  089%=      5-min Rain = 0
KPD3 161557Z 35011KT 08/06 A2998 RMK A01 T00800064  RH  090%=      5-min Rain = 0
KPD3 161558Z 34012KT 08/07 A2998 RMK A01 T00800065  RH  090%=      5-min Rain = 0
KPD3 161559Z 34014KT 08/06 A2998 RMK A01 T00810064  RH  089%=      5-min Rain = 0
KPD3 161600Z 34012KT 08/06 A2998 RMK A01 T00810062  RH  088%=      5-min Rain = 0
KPD3 161601Z 34011KT 08/07 A2998 RMK A01 T00820065  RH  089%=      5-min Rain = 0
KPD3 161602Z 34012KT 08/07 A2998 RMK A01 T00840066  RH  088%=      5-min Rain = 0
KPD3 161603Z 35011KT 08/06 A2998 RMK A01 T00840064  RH  087%=      5-min Rain = 0
KPD3 161604Z 35011KT 09/07 A2998 RMK A01 T00850066  RH  088%=      5-min Rain = 0
KPD3 161605Z 35011KT 09/07 A2998 RMK A01 T00860068  RH  088%=      5-min Rain = 0
KPD3 161606Z 36013KT 09/07 A2998 RMK A01 T00860068  RH  088%=      5-min Rain = 0
KPD3 161607Z 35013KT 09/06 A2998 RMK A01 T00850063  RH  086%=      5-min Rain = 0
KPD3 161608Z 34010KT 08/06 A2998 RMK A01 T00840062  RH  086%=      5-min Rain = 0
KPD3 161609Z 35012KT 08/06 A2998 RMK A01 T00840063  RH  087%=      5-min Rain = 0
KPD3 161610Z 34014KT 09/07 A2998 RMK A01 T00860066  RH  087%=      5-min Rain = 0
KPD3 161611Z 34013KT 09/07 A2998 RMK A01 T00870066  RH  087%=      5-min Rain = 0
KPD3 161612Z 35013KT 09/06 A2998 RMK A01 T00870064  RH  086%=      5-min Rain = 0
KPD3 161613Z 34012KT 09/06 A2998 RMK A01 T00860064  RH  086%=      5-min Rain = 0
KPD3 161614Z 35013KT 09/07 A2998 RMK A01 T00870066  RH  087%=      5-min Rain = 0
KPD3 161615Z 36013KT 09/07 A2998 RMK A01 T00880066  RH  086%=      5-min Rain = 0
KPD3 161616Z 35014KT 09/07 A2998 RMK A01 T00890066  RH  085%=      5-min Rain = 0
KPD3 161617Z 35015KT 09/07 A2998 RMK A01 T00900068  RH  086%=      5-min Rain = 0
KPD3 161618Z 34012KT 09/07 A2998 RMK A01 T00920071  RH  087%=      5-min Rain = 0
KPD3 161619Z 35012KT 09/07 A2998 RMK A01 T00930070  RH  085%=      5-min Rain = 0
KPD3 161620Z 34013G19KT 09/07 A2998 RMK A01 T00930070  RH  086%=      5-min Rain = 0
KPD3 161621Z 34016KT 09/07 A2998 RMK A01 T00930066  RH  084%=      5-min Rain = 0
KPD3 161622Z 34012KT 09/06 A2998 RMK A01 T00910064  RH  083%=      5-min Rain = 0
KPD3 161623Z 35013G18KT 09/07 A2998 RMK A01 T00910069  RH  086%=      5-min Rain = 0
KPD3 161624Z 35015KT 09/07 A2998 RMK A01 T00920067  RH  085%=      5-min Rain = 0
KPD3 161625Z 34016KT 09/07 A2998 RMK A01 T00910065  RH  084%=      5-min Rain = 0
KPD3 161626Z 34016KT 09/06 A2998 RMK A01 T00900063  RH  084%=      5-min Rain = 0
KPD3 161627Z 35016KT 09/06 A2998 RMK A01 T00890064  RH  084%=      5-min Rain = 0
KPD3 161628Z 34013KT 09/06 A2998 RMK A01 T00890064  RH  084%=      5-min Rain = 0
KPD3 161629Z 35015KT 09/07 A2998 RMK A01 T00900066  RH  085%=      5-min Rain = 0
KPD3 161630Z 36017KT 09/07 A2998 RMK A01 T00910065  RH  084%=      5-min Rain = 0
KPD3 161631Z 34015KT 09/06 A2998 RMK A01 T00920064  RH  083%=      5-min Rain = 0
KPD3 161632Z 35016KT 09/06 A2998 RMK A01 T00910064  RH  083%=      5-min Rain = 0
KPD3 161633Z 35014KT 09/06 A2998 RMK A01 T00920064  RH  083%=      5-min Rain = 0
KPD3 161634Z 35013KT 09/07 A2998 RMK A01 T00920066  RH  084%=      5-min Rain = 0
KPD3 161635Z 33017KT 09/07 A2998 RMK A01 T00930065  RH  083%=      5-min Rain = 0
KPD3 161636Z 33017KT 09/06 A2998 RMK A01 T00930062  RH  081%=      5-min Rain = 0
KPD3 161637Z 34016KT 09/06 A2998 RMK A01 T00910061  RH  081%=      5-min Rain = 0
KPD3 161638Z 34018KT 09/06 A2998 RMK A01 T00900061  RH  082%=      5-min Rain = 0
KPD3 161639Z 34016KT 09/06 A2998 RMK A01 T00910061  RH  082%=      5-min Rain = 0
KPD3 161640Z 34015KT 09/06 A2998 RMK A01 T00920063  RH  082%=      5-min Rain = 0
KPD3 161641Z 34016KT 09/06 A2998 RMK A01 T00930063  RH  082%=      5-min Rain = 0
KPD3 161642Z 35013KT 09/07 A2998 RMK A01 T00940066  RH  083%=      5-min Rain = 0
KPD3 161643Z 34017KT 10/07 A2998 RMK A01 T00960067  RH  082%=      5-min Rain = 0
KPD3 161644Z 35015KT 10/07 A2998 RMK A01 T00970065  RH  081%=      5-min Rain = 0
KPD3 161645Z 36017KT 10/07 A2998 RMK A01 T00980067  RH  081%=      5-min Rain = 0
KPD3 161646Z 35017KT 10/06 A2998 RMK A01 T00980064  RH  079%=      5-min Rain = 0
KPD3 161647Z 35015KT 10/06 A2998 RMK A01 T00960062  RH  079%=      5-min Rain = 0
KPD3 161648Z 35015KT 10/06 A2998 RMK A01 T00950064  RH  081%=      5-min Rain = 0
KPD3 161649Z 35014KT 10/06 A2998 RMK A01 T00960063  RH  080%=      5-min Rain = 0
KPD3 161650Z 34015KT 10/07 A2998 RMK A01 T00960065  RH  081%=      5-min Rain = 0
KPD3 161651Z 34016KT 10/06 A2998 RMK A01 T00970063  RH  079%=      5-min Rain = 0
KPD3 161652Z 34015KT 10/06 A2998 RMK A01 T00970063  RH  079%=      5-min Rain = 0
KPD3 161653Z 35012KT 10/06 A2998 RMK A01 T00970064  RH  080%=      5-min Rain = 0
KPD3 161654Z 35014KT 10/06 A2998 RMK A01 T00970064  RH  080%=      5-min Rain = 0
KPD3 161655Z 36015KT 10/06 A2998 RMK A01 T00970064  RH  080%=      5-min Rain = 0
KPD3 161656Z 35015KT 10/06 A2998 RMK A01 T00970063  RH  079%=      5-min Rain = 0
KPD3 161657Z 36012KT 10/06 A2998 RMK A01 T00960063  RH  080%=      5-min Rain = 0
KPD3 161658Z 35013G18KT 10/07 A2998 RMK A01 T00960066  RH  082%=      5-min Rain = 0
KPD3 161659Z 35014KT 10/07 A2998 RMK A01 T00960066  RH  081%=      5-min Rain = 0
KPD3 161700Z 35016KT 10/06 A2998 RMK A01 T00960063  RH  080%=      5-min Rain = 0
KPD3 161701Z 34014KT 10/06 A2998 RMK A01 T00950062  RH  079%=      5-min Rain = 0
KPD3 161702Z 35016KT 10/06 A2998 RMK A01 T00950062  RH  080%=      5-min Rain = 0
KPD3 161703Z 35014KT 09/06 A2998 RMK A01 T00940061  RH  080%=      5-min Rain = 0
KPD3 161704Z 35014KT 09/06 A2998 RMK A01 T00940063  RH  081%=      5-min Rain = 0
KPD3 161705Z 34018KT 10/06 A2998 RMK A01 T00950062  RH  080%=      5-min Rain = 0
KPD3 161706Z 35015KT 10/06 A2998 RMK A01 T00950062  RH  080%=      5-min Rain = 0
KPD3 161707Z 36018G23KT 10/06 A2998 RMK A01 T00960062  RH  079%=      5-min Rain = 0
KPD3 161708Z 35019G24KT 10/06 A2998 RMK A01 T00960062  RH  079%=      5-min Rain = 0
KPD3 161709Z 35021KT 09/06 A2998 RMK A01 T00940058  RH  078%=      5-min Rain = 0
KPD3 161710Z 35019KT 09/06 A2998 RMK A01 T00930058  RH  079%=      5-min Rain = 0
KPD3 161711Z 35019KT 09/06 A2998 RMK A01 T00930058  RH  079%=      5-min Rain = 0
KPD3 161712Z 34019KT 09/06 A2998 RMK A01 T00920059  RH  079%=      5-min Rain = 0
KPD3 161713Z 34017KT 09/06 A2998 RMK A01 T00920058  RH  079%=      5-min Rain = 0
KPD3 161714Z 34017KT 09/06 A2998 RMK A01 T00920059  RH  080%=      5-min Rain = 0
KPD3 161715Z 34019G24KT 09/06 A2998 RMK A01 T00920058  RH  079%=      5-min Rain = 0
KPD3 161716Z 34016KT 09/06 A2998 RMK A01 T00910058  RH  080%=      5-min Rain = 0
KPD3 161717Z 35015KT 09/06 A2999 RMK A01 T00920061  RH  081%=      5-min Rain = 0
KPD3 161718Z 35018G24KT 09/06 A2999 RMK A01 T00940061  RH  080%=      5-min Rain = 0
KPD3 161719Z 35016G21KT 09/06 A2999 RMK A01 T00940060  RH  079%=      5-min Rain = 0
KPD3 161720Z 35017KT 10/06 A2999 RMK A01 T00950059  RH  078%=      5-min Rain = 0
KPD3 161721Z 34018KT 10/06 A2999 RMK A01 T00960060  RH  078%=      5-min Rain = 0
KPD3 161722Z 34019G24KT 10/06 A2999 RMK A01 T00960058  RH  077%=      5-min Rain = 0
KPD3 161723Z 35016KT 10/06 A2998 RMK A01 T00960057  RH  077%=      5-min Rain = 0
KPD3 161724Z 34014G21KT 10/06 A2999 RMK A01 T00960061  RH  079%=      5-min Rain = 0
KPD3 161725Z 35020KT 10/06 A2999 RMK A01 T00980060  RH  077%=      5-min Rain = 0
KPD3 161726Z 34021KT 10/06 A2999 RMK A01 T00980056  RH  075%=      5-min Rain = 0
KPD3 161727Z 34019KT 10/06 A2999 RMK A01 T00960055  RH  076%=      5-min Rain = 0
KPD3 161728Z 35016G21KT 10/06 A2999 RMK A01 T00950057  RH  077%=      5-min Rain = 0
KPD3 161729Z 33020KT 10/06 A2999 RMK A01 T00960059  RH  078%=      5-min Rain = 0
KPD3 161730Z 34018KT 10/06 A2999 RMK A01 T00970057  RH  076%=      5-min Rain = 0
KPD3 161731Z 35016KT 10/06 A2999 RMK A01 T00970058  RH  077%=      5-min Rain = 0
KPD3 161732Z 35018KT 10/06 A2999 RMK A01 T00970059  RH  077%=      5-min Rain = 0
KPD3 161733Z 35018KT 10/06 A2999 RMK A01 T00970058  RH  076%=      5-min Rain = 0
KPD3 161734Z 35019KT 10/06 A2999 RMK A01 T00960056  RH  076%=      5-min Rain = 0
KPD3 161735Z 00016KT 10/06 A2999 RMK A01 T00950057  RH  077%=      5-min Rain = 0
KPD3 161736Z 35017KT 10/06 A2999 RMK A01 T00960059  RH  078%=      5-min Rain = 0
KPD3 161737Z 35016KT 10/06 A2999 RMK A01 T00960057  RH  077%=      5-min Rain = 0
KPD3 161738Z 36017KT 10/06 A2999 RMK A01 T00960057  RH  077%=      5-min Rain = 0
KPD3 161739Z 35018KT 10/06 A2999 RMK A01 T00960058  RH  077%=      5-min Rain = 0
KPD3 161740Z 35020KT 10/06 A2999 RMK A01 T00960057  RH  077%=      5-min Rain = 0
KPD3 161741Z 35015G20KT 10/06 A2999 RMK A01 T00960058  RH  077%=      5-min Rain = 0
KPD3 161742Z 35018KT 10/06 A2999 RMK A01 T00980059  RH  077%=      5-min Rain = 0
KPD3 161743Z 35021KT 10/06 A2999 RMK A01 T00980056  RH  075%=      5-min Rain = 0
KPD3 161744Z 34019G25KT 10/06 A2999 RMK A01 T00970055  RH  075%=      5-min Rain = 0
KPD3 161745Z 35021G26KT 10/06 A2999 RMK A01 T00980055  RH  075%=      5-min Rain = 0
KPD3 161746Z 35019KT 10/06 A2999 RMK A01 T00970055  RH  075%=      5-min Rain = 0
KPD3 161747Z 35020KT 10/06 A2999 RMK A01 T00970056  RH  076%=      5-min Rain = 0
KPD3 161748Z 35016G22KT 10/06 A2999 RMK A01 T00970056  RH  076%=      5-min Rain = 0
KPD3 161749Z 35019KT 10/06 A2999 RMK A01 T00970058  RH  077%=      5-min Rain = 0
KPD3 161750Z 36017KT 10/06 A2999 RMK A01 T00970057  RH  076%=      5-min Rain = 0
KPD3 161751Z 36019KT 10/06 A2999 RMK A01 T00970056  RH  076%=      5-min Rain = 0
KPD3 161752Z 35017KT 10/06 A2999 RMK A01 T00970056  RH  076%=      5-min Rain = 0
KPD3 161753Z 35018KT 10/06 A2999 RMK A01 T00980058  RH  076%=      5-min Rain = 0
KPD3 161754Z 35019KT 10/06 A2999 RMK A01 T00990056  RH  075%=      5-min Rain = 0
KPD3 161755Z 34016G21KT 10/06 A2999 RMK A01 T00980056  RH  075%=      5-min Rain = 0
KPD3 161756Z 34018G24KT 10/06 A2999 RMK A01 T00990056  RH  075%=      5-min Rain = 0
KPD3 161757Z 34018KT 10/06 A2999 RMK A01 T00990055  RH  074%=      5-min Rain = 0
KPD3 161758Z 35017KT 10/06 A2999 RMK A01 T00990056  RH  075%=      5-min Rain = 0
KPD3 161759Z 35016KT 10/06 A2999 RMK A01 T00990056  RH  075%=      5-min Rain = 0
KPD3 161800Z 35017G22KT 10/06 A2999 RMK A01 T01010057  RH  074%=      5-min Rain = 0
KPD3 161801Z 35014G19KT 10/06 A2999 RMK A01 T01020058  RH  074%=      5-min Rain = 0
KPD3 161802Z 35018KT 10/06 A2999 RMK A01 T01020057  RH  074%=      5-min Rain = 0
KPD3 161803Z 00016KT 10/06 A2999 RMK A01 T01010057  RH  074%=      5-min Rain = 0
KPD3 161804Z 00018G23KT 10/06 A2999 RMK A01 T01010057  RH  074%=      5-min Rain = 0
KPD3 161805Z 00018KT 10/06 A2999 RMK A01 T00980055  RH  075%=      5-min Rain = 0
KPD3 161806Z 00017KT 10/06 A2999 RMK A01 T00970057  RH  076%=      5-min Rain = 0
KPD3 161807Z 35018G23KT 10/06 A2999 RMK A01 T00970057  RH  076%=      5-min Rain = 0
KPD3 161808Z 36018KT 10/06 A2999 RMK A01 T00980056  RH  075%=      5-min Rain = 0
KPD3 161809Z 00018KT 10/06 A2999 RMK A01 T00980057  RH  076%=      5-min Rain = 0
KPD3 161810Z 35019KT 10/06 A2999 RMK A01 T00990055  RH  074%=      5-min Rain = 0
KPD3 161811Z 35016KT 10/05 A2999 RMK A01 T00980053  RH  074%=      5-min Rain = 0
KPD3 161812Z 36016G22KT 10/06 A2999 RMK A01 T00970056  RH  075%=      5-min Rain = 0
KPD3 161813Z 34014KT 10/06 A2999 RMK A01 T00980058  RH  076%=      5-min Rain = 0
KPD3 161814Z 35019KT 10/06 A2999 RMK A01 T01000058  RH  075%=      5-min Rain = 0
KPD3 161815Z 35018KT 10/06 A2999 RMK A01 T01000057  RH  074%=      5-min Rain = 0
KPD3 161816Z 35019KT 10/06 A2999 RMK A01 T01000055  RH  073%=      5-min Rain = 0
KPD3 161817Z 36017KT 10/06 A2999 RMK A01 T01000055  RH  074%=      5-min Rain = 0
KPD3 161818Z 35019KT 10/05 A2999 RMK A01 T01000054  RH  073%=      5-min Rain = 0
KPD3 161819Z 34016KT 10/05 A2999 RMK A01 T01000054  RH  073%=      5-min Rain = 0
KPD3 161820Z 34014KT 10/06 A2999 RMK A01 T01020057  RH  074%=      5-min Rain = 0
KPD3 161821Z 35013KT 11/06 A2999 RMK A01 T01050061  RH  074%=      5-min Rain = 0
KPD3 161822Z 35014KT 11/07 A2999 RMK A01 T01110065  RH  073%=      5-min Rain = 0
KPD3 161823Z 35014KT 11/06 A2999 RMK A01 T01130061  RH  071%=      5-min Rain = 0
KPD3 161824Z 35014KT 11/06 A2999 RMK A01 T01140061  RH  070%=      5-min Rain = 0
KPD3 161825Z 35015KT 11/06 A2999 RMK A01 T01130057  RH  068%=      5-min Rain = 0
KPD3 161826Z 34011KT 11/06 A2999 RMK A01 T01130057  RH  068%=      5-min Rain = 0
KPD3 161827Z 34013KT 11/06 A2999 RMK A01 T01140059  RH  069%=      5-min Rain = 0
KPD3 161828Z 34017KT 12/06 A2999 RMK A01 T01170062  RH  069%=      5-min Rain = 0
KPD3 161829Z 35018G24KT 12/06 A2999 RMK A01 T01170059  RH  068%=      5-min Rain = 0
KPD3 161830Z 36014KT 12/06 A2999 RMK A01 T01160059  RH  068%=      5-min Rain = 0
KPD3 161831Z 36018KT 12/06 A2999 RMK A01 T01160060  RH  068%=      5-min Rain = 0
KPD3 161832Z 35016KT 11/06 A2999 RMK A01 T01140057  RH  068%=      5-min Rain = 0
KPD3 161833Z 35015KT 11/06 A2999 RMK A01 T01120057  RH  069%=      5-min Rain = 0
KPD3 161834Z 35014KT 11/06 A2999 RMK A01 T01120058  RH  069%=      5-min Rain = 0
KPD3 161835Z 35014KT 11/06 A2999 RMK A01 T01120060  RH  070%=      5-min Rain = 0
KPD3 161836Z 35016KT 11/06 A2999 RMK A01 T01130059  RH  070%=      5-min Rain = 0
KPD3 161837Z 35017KT 11/06 A2999 RMK A01 T01140058  RH  069%=      5-min Rain = 0
KPD3 161838Z 36017G22KT 11/06 A2999 RMK A01 T01140059  RH  069%=      5-min Rain = 0
KPD3 161839Z 00018KT 11/06 A2999 RMK A01 T01130058  RH  069%=      5-min Rain = 0
KPD3 161840Z 00018KT 11/06 A2999 RMK A01 T01130059  RH  069%=      5-min Rain = 0
KPD3 161841Z 36019KT 11/06 A2999 RMK A01 T01140058  RH  068%=      5-min Rain = 0
KPD3 161842Z 36018KT 11/06 A2999 RMK A01 T01140057  RH  068%=      5-min Rain = 0
KPD3 161843Z 35018G24KT 12/06 A2999 RMK A01 T01160060  RH  068%=      5-min Rain = 0
KPD3 161844Z 35016KT 12/06 A2999 RMK A01 T01180059  RH  067%=      5-min Rain = 0
KPD3 161845Z 35018KT 12/06 A2999 RMK A01 T01180056  RH  066%=      5-min Rain = 0
KPD3 161846Z 35018KT 12/05 A2999 RMK A01 T01150054  RH  066%=      5-min Rain = 0
KPD3 161847Z 36017KT 11/05 A2999 RMK A01 T01120054  RH  067%=      5-min Rain = 0
KPD3 161848Z 00022G27KT 11/05 A2999 RMK A01 T01110054  RH  068%=      5-min Rain = 0
KPD3 161849Z 00019G26KT 11/05 A2999 RMK A01 T01080052  RH  068%=      5-min Rain = 0
KPD3 161850Z 00021KT 11/05 A2999 RMK A01 T01070051  RH  068%=      5-min Rain = 0
KPD3 161851Z 00021G27KT 11/05 A2999 RMK A01 T01060048  RH  067%=      5-min Rain = 0
KPD3 161852Z 36017G23KT 11/05 A2999 RMK A01 T01050046  RH  067%=      5-min Rain = 0
KPD3 161853Z 36017G22KT 11/05 A2999 RMK A01 T01050048  RH  068%=      5-min Rain = 0
KPD3 161854Z 36012KT 11/05 A2999 RMK A01 T01080052  RH  068%=      5-min Rain = 0
KPD3 161855Z 35013G18KT 11/06 A2999 RMK A01 T01140059  RH  069%=      5-min Rain = 0
KPD3 161856Z 00020KT 12/06 A2999 RMK A01 T01190056  RH  065%=      5-min Rain = 0
KPD3 161857Z 36021KT 12/05 A2999 RMK A01 T01200054  RH  064%=      5-min Rain = 0
KPD3 161858Z 01017KT 12/05 A2999 RMK A01 T01210052  RH  063%=      5-min Rain = 0
KPD3 161859Z 01017G22KT 12/06 A2999 RMK A01 T01240060  RH  065%=      5-min Rain = 0
KPD3 161900Z 36017G22KT 13/06 A2999 RMK A01 T01270057  RH  062%=      5-min Rain = 0
KPD3 161901Z 36018KT 13/06 A2999 RMK A01 T01260056  RH  062%=      5-min Rain = 0
KPD3 161902Z 34018KT 12/05 A2999 RMK A01 T01240053  RH  062%=      5-min Rain = 0
KPD3 161903Z 35020KT 12/05 A2999 RMK A01 T01200050  RH  062%=      5-min Rain = 0
KPD3 161904Z 35020KT 12/05 A2999 RMK A01 T01170050  RH  063%=      5-min Rain = 0
KPD3 161905Z 34020KT 12/05 A2999 RMK A01 T01190054  RH  064%=      5-min Rain = 0
KPD3 161906Z 36021KT 12/05 A2999 RMK A01 T01200054  RH  064%=      5-min Rain = 0
KPD3 161907Z 36021KT 12/05 A2999 RMK A01 T01190053  RH  064%=      5-min Rain = 0
KPD3 161908Z 35019KT 12/05 A2999 RMK A01 T01160050  RH  064%=      5-min Rain = 0
KPD3 161909Z 36019G24KT 12/05 A30 RMK A01 T01150050  RH  064%=      5-min Rain = 0
KPD3 161910Z 00020KT 11/05 A30 RMK A01 T01140050  RH  065%=      5-min Rain = 0
KPD3 161911Z 00022KT 11/05 A30 RMK A01 T01140048  RH  064%=      5-min Rain = 0
KPD3 161912Z 36018KT 11/05 A30 RMK A01 T01130046  RH  064%=      5-min Rain = 0
KPD3 161913Z 36017KT 11/05 A30 RMK A01 T01140047  RH  064%=      5-min Rain = 0
KPD3 161914Z 36018KT 12/05 A30 RMK A01 T01150046  RH  063%=      5-min Rain = 0
KPD3 161915Z 00017KT 12/05 A30 RMK A01 T01150049  RH  064%=      5-min Rain = 0
KPD3 161916Z 36022KT 12/05 A30 RMK A01 T01170049  RH  063%=      5-min Rain = 0
KPD3 161917Z 36022KT 12/04 A30 RMK A01 T01160043  RH  061%=      5-min Rain = 0
KPD3 161918Z 35020G25KT 11/04 A30 RMK A01 T01140041  RH  061%=      5-min Rain = 0
KPD3 161919Z 35020KT 11/04 A30 RMK A01 T01130039  RH  060%=      5-min Rain = 0
KPD3 161920Z 34017KT 11/04 A30 RMK A01 T01120037  RH  060%=      5-min Rain = 0
KPD3 161921Z 35017KT 11/04 A30 RMK A01 T01110038  RH  061%=      5-min Rain = 0
KPD3 161922Z 00019G24KT 11/04 A30 RMK A01 T01130039  RH  060%=      5-min Rain = 0
KPD3 161923Z 36018KT 11/04 A30 RMK A01 T01140039  RH  060%=      5-min Rain = 0
KPD3 161924Z 36017KT 11/04 A30 RMK A01 T01140040  RH  060%=      5-min Rain = 0
KPD3 161925Z 36016KT 12/04 A30 RMK A01 T01150039  RH  060%=      5-min Rain = 0
KPD3 161926Z 34018KT 12/04 A30 RMK A01 T01160041  RH  060%=      5-min Rain = 0
KPD3 161927Z 34020KT 12/04 A30 RMK A01 T01180042  RH  060%=      5-min Rain = 0
KPD3 161928Z 35020KT 12/04 A30 RMK A01 T01170040  RH  059%=      5-min Rain = 0
KPD3 161929Z 36018KT 12/04 A30 RMK A01 T01160041  RH  060%=      5-min Rain = 0
KPD3 161930Z 35019G25KT 11/04 A30 RMK A01 T01140041  RH  061%=      5-min Rain = 0
KPD3 161931Z 34022KT 11/04 A30 RMK A01 T01140042  RH  061%=      5-min Rain = 0
KPD3 161932Z 35019KT 11/04 A30 RMK A01 T01130041  RH  061%=      5-min Rain = 0
KPD3 161933Z 35021KT 11/04 A30 RMK A01 T01120041  RH  062%=      5-min Rain = 0
KPD3 161934Z 34019KT 11/04 A30 RMK A01 T01110041  RH  062%=      5-min Rain = 0
KPD3 161935Z 35019KT 11/04 A30 RMK A01 T01120042  RH  062%=      5-min Rain = 0
KPD3 161936Z 34018KT 11/04 A30 RMK A01 T01120041  RH  062%=      5-min Rain = 0
KPD3 161937Z 34015KT 11/04 A30 RMK A01 T01120043  RH  062%=      5-min Rain = 0
KPD3 161938Z 35014KT 11/05 A30 RMK A01 T01140047  RH  063%=      5-min Rain = 0
KPD3 161939Z 35019KT 12/05 A30 RMK A01 T01170047  RH  062%=      5-min Rain = 0
KPD3 161940Z 35019KT 12/05 A30 RMK A01 T01150045  RH  062%=      5-min Rain = 0
KPD3 161941Z 36015KT 12/05 A30 RMK A01 T01160049  RH  063%=      5-min Rain = 0
KPD3 161942Z 00014KT 12/05 A30 RMK A01 T01200054  RH  064%=      5-min Rain = 0
KPD3 161943Z 36020G25KT 12/05 A30 RMK A01 T01220052  RH  062%=      5-min Rain = 0
KPD3 161944Z 36019KT 12/04 A30 RMK A01 T01160044  RH  061%=      5-min Rain = 0
KPD3 161945Z 00019G24KT 11/04 A30 RMK A01 T01110041  RH  062%=      5-min Rain = 0
KPD3 161946Z 00016KT 11/04 A30 RMK A01 T01080042  RH  064%=      5-min Rain = 0
KPD3 161947Z 00018KT 11/05 A30 RMK A01 T01090045  RH  064%=      5-min Rain = 0
KPD3 161948Z 36018KT 11/05 A30 RMK A01 T01100045  RH  064%=      5-min Rain = 0
KPD3 161949Z 34019G27KT 11/05 A30 RMK A01 T01120047  RH  064%=      5-min Rain = 0
KPD3 161950Z 35018KT 11/05 A30 RMK A01 T01130049  RH  065%=      5-min Rain = 0
KPD3 161951Z 34023KT 11/05 A30 RMK A01 T01140050  RH  065%=      5-min Rain = 0
KPD3 161952Z 34024KT 11/05 A3001 RMK A01 T01090046  RH  065%=      5-min Rain = 0
KPD3 161953Z 35022KT 11/05 A3001 RMK A01 T01060046  RH  066%=      5-min Rain = 0
KPD3 161954Z 35022G27KT 11/05 A3001 RMK A01 T01050046  RH  067%=      5-min Rain = 0
KPD3 161955Z 36020KT 10/05 A3001 RMK A01 T01040046  RH  068%=      5-min Rain = 0
KPD3 161956Z 35020KT 10/05 A3001 RMK A01 T01030046  RH  068%=      5-min Rain = 0
KPD3 161957Z 35021KT 10/05 A3001 RMK A01 T01040046  RH  067%=      5-min Rain = 0
KPD3 161958Z 35020G25KT 11/05 A3001 RMK A01 T01050046  RH  067%=      5-min Rain = 0
KPD3 161959Z 35016G21KT 11/05 A3001 RMK A01 T01060048  RH  067%=      5-min Rain = 0
KPD3 162000Z 35022KT 11/05 A3001 RMK A01 T01090048  RH  066%=      5-min Rain = 0
KPD3 162001Z 35022KT 11/04 A3001 RMK A01 T01080042  RH  064%=      5-min Rain = 0
KPD3 162002Z 36019KT 11/04 A3001 RMK A01 T01070040  RH  063%=      5-min Rain = 0
KPD3 162003Z 36019KT 11/04 A3001 RMK A01 T01070041  RH  064%=      5-min Rain = 0
KPD3 162004Z 36020KT 11/04 A3001 RMK A01 T01060041  RH  064%=      5-min Rain = 0
KPD3 162005Z 36018KT 11/04 A3001 RMK A01 T01060041  RH  064%=      5-min Rain = 0
KPD3 162006Z 35016KT 11/04 A3001 RMK A01 T01050042  RH  065%=      5-min Rain = 0
KPD3 162007Z 34019KT 11/04 A3001 RMK A01 T01060043  RH  065%=      5-min Rain = 0
KPD3 162008Z 34018KT 11/04 A3001 RMK A01 T01090043  RH  064%=      5-min Rain = 0
KPD3 162009Z 35017KT 11/05 A3001 RMK A01 T01140046  RH  063%=      5-min Rain = 0
KPD3 162010Z 36016KT 12/05 A3001 RMK A01 T01190045  RH  060%=      5-min Rain = 0
KPD3 162011Z 35015G20KT 12/05 A3001 RMK A01 T01220046  RH  060%=      5-min Rain = 0
KPD3 162012Z 35016KT 12/04 A3001 RMK A01 T01220042  RH  058%=      5-min Rain = 0
KPD3 162013Z 35015KT 12/04 A30 RMK A01 T01180037  RH  058%=      5-min Rain = 0
KPD3 162014Z 36012G17KT 12/04 A3001 RMK A01 T01160041  RH  060%=      5-min Rain = 0
KPD3 162015Z 00018G24KT 12/04 A30 RMK A01 T01180044  RH  060%=      5-min Rain = 0
KPD3 162016Z 35018KT 12/04 A3001 RMK A01 T01190040  RH  059%=      5-min Rain = 0
KPD3 162017Z 35021KT 12/04 A30 RMK A01 T01170037  RH  058%=      5-min Rain = 0
KPD3 162018Z 35017KT 12/04 A3001 RMK A01 T01160038  RH  059%=      5-min Rain = 0
KPD3 162019Z 35018KT 12/04 A3001 RMK A01 T01160040  RH  060%=      5-min Rain = 0
KPD3 162020Z 34019KT 12/04 A30 RMK A01 T01160038  RH  059%=      5-min Rain = 0
KPD3 162021Z 35018KT 12/04 A30 RMK A01 T01150037  RH  059%=      5-min Rain = 0
KPD3 162022Z 36017KT 12/04 A30 RMK A01 T01150040  RH  060%=      5-min Rain = 0
KPD3 162023Z 35020KT 12/04 A30 RMK A01 T01160041  RH  060%=      5-min Rain = 0
KPD3 162024Z 34019G24KT 12/04 A30 RMK A01 T01190043  RH  059%=      5-min Rain = 0
KPD3 162025Z 35019KT 12/04 A30 RMK A01 T01200037  RH  057%=      5-min Rain = 0
KPD3 162026Z 00018KT 12/04 A30 RMK A01 T01170037  RH  058%=      5-min Rain = 0
KPD3 162027Z 35019KT 12/04 A30 RMK A01 T01160037  RH  058%=      5-min Rain = 0
KPD3 162028Z 34020KT 12/04 A30 RMK A01 T01160038  RH  058%=      5-min Rain = 0
KPD3 162029Z 36018G23KT 12/04 A30 RMK A01 T01180039  RH  059%=      5-min Rain = 0
KPD3 162030Z 36018KT 12/04 A30 RMK A01 T01200038  RH  058%=      5-min Rain = 0
KPD3 162031Z 01017KT 12/04 A30 RMK A01 T01220041  RH  057%=      5-min Rain = 0
KPD3 162032Z 36019KT 13/04 A30 RMK A01 T01270044  RH  057%=      5-min Rain = 0
KPD3 162033Z 36017KT 13/04 A30 RMK A01 T01260039  RH  056%=      5-min Rain = 0
KPD3 162034Z 00017KT 12/04 A30 RMK A01 T01240039  RH  056%=      5-min Rain = 0
KPD3 162035Z 00018G24KT 13/04 A30 RMK A01 T01260043  RH  057%=      5-min Rain = 0
KPD3 162036Z 36022KT 13/04 A30 RMK A01 T01280040  RH  055%=      5-min Rain = 0
KPD3 162037Z 00022KT 12/04 A30 RMK A01 T01230035  RH  055%=      5-min Rain = 0
KPD3 162038Z 00021KT 12/04 A30 RMK A01 T01190035  RH  056%=      5-min Rain = 0
KPD3 162039Z 00020KT 12/04 A30 RMK A01 T01160037  RH  058%=      5-min Rain = 0
KPD3 162040Z 01019KT 12/04 A30 RMK A01 T01160037  RH  058%=      5-min Rain = 0
KPD3 162041Z 00018KT 12/04 A30 RMK A01 T01160036  RH  058%=      5-min Rain = 0
KPD3 162042Z 01017KT 12/04 A30 RMK A01 T01160036  RH  058%=      5-min Rain = 0
KPD3 162043Z 01019KT 12/04 A30 RMK A01 T01170035  RH  057%=      5-min Rain = 0
KPD3 162044Z 00020G25KT 12/03 A3001 RMK A01 T01160033  RH  057%=      5-min Rain = 0
KPD3 162045Z 01022KT 11/03 A3001 RMK A01 T01140033  RH  057%=      5-min Rain = 0
KPD3 162046Z 00019KT 11/03 A3001 RMK A01 T01120032  RH  058%=      5-min Rain = 0
KPD3 162047Z 36018KT 11/03 A3001 RMK A01 T01120034  RH  059%=      5-min Rain = 0
KPD3 162048Z 35021KT 11/04 A3001 RMK A01 T01130037  RH  059%=      5-min Rain = 0
KPD3 162049Z 00020KT 11/03 A3001 RMK A01 T01120033  RH  058%=      5-min Rain = 0
KPD3 162050Z 00021KT 11/03 A3001 RMK A01 T01110033  RH  059%=      5-min Rain = 0
KPD3 162051Z 36019G24KT 11/04 A3001 RMK A01 T01120035  RH  059%=      5-min Rain = 0
KPD3 162052Z 35022KT 12/04 A3001 RMK A01 T01150036  RH  058%=      5-min Rain = 0
KPD3 162053Z 35020G25KT 12/03 A3001 RMK A01 T01150034  RH  058%=      5-min Rain = 0
KPD3 162054Z 35019KT 12/03 A3001 RMK A01 T01150033  RH  057%=      5-min Rain = 0
KPD3 162055Z 36016G22KT 12/04 A3001 RMK A01 T01170038  RH  058%=      5-min Rain = 0
KPD3 162056Z 01021KT 12/04 A3001 RMK A01 T01200035  RH  056%=      5-min Rain = 0
KPD3 162057Z 01023KT 12/03 A3001 RMK A01 T01170031  RH  056%=      5-min Rain = 0
KPD3 162058Z 01022KT 11/03 A3001 RMK A01 T01140030  RH  056%=      5-min Rain = 0
KPD3 162059Z 36022G27KT 11/03 A3001 RMK A01 T01130031  RH  057%=      5-min Rain = 0
KPD3 162100Z 35019KT 11/03 A3001 RMK A01 T01130032  RH  058%=      5-min Rain = 0
KPD3 162101Z 36018KT 11/03 A3001 RMK A01 T01130032  RH  058%=      5-min Rain = 0
KPD3 162102Z 35021KT 11/03 A3001 RMK A01 T01130031  RH  057%=      5-min Rain = 0
KPD3 162103Z 36019KT 11/03 A3001 RMK A01 T01120031  RH  057%=      5-min Rain = 0
KPD3 162104Z 34019KT 11/03 A3001 RMK A01 T01130031  RH  057%=      5-min Rain = 0
KPD3 162105Z 35018KT 11/03 A3001 RMK A01 T01130029  RH  056%=      5-min Rain = 0
KPD3 162106Z 35017KT 11/03 A3001 RMK A01 T01140030  RH  056%=      5-min Rain = 0
KPD3 162107Z 35018G23KT 12/03 A30 RMK A01 T01150030  RH  056%=      5-min Rain = 0
KPD3 162108Z 34018KT 12/04 A3001 RMK A01 T01150035  RH  058%=      5-min Rain = 0
KPD3 162109Z 34021G28KT 11/04 A30 RMK A01 T01140035  RH  058%=      5-min Rain = 0
KPD3 162110Z 34022G29KT 11/04 A3001 RMK A01 T01130037  RH  059%=      5-min Rain = 0
KPD3 162111Z 34024G29KT 12/04 A3001 RMK A01 T01150037  RH  058%=      5-min Rain = 0
KPD3 162112Z 34021KT 12/04 A3001 RMK A01 T01160035  RH  058%=      5-min Rain = 0
KPD3 162113Z 34023G28KT 12/04 A3001 RMK A01 T01150036  RH  058%=      5-min Rain = 0
KPD3 162114Z 35021G26KT 11/03 A3001 RMK A01 T01140033  RH  058%=      5-min Rain = 0
KPD3 162115Z 34020G26KT 11/03 A3001 RMK A01 T01120034  RH  059%=      5-min Rain = 0
KPD3 162116Z 34022KT 11/03 A3001 RMK A01 T01100032  RH  059%=      5-min Rain = 0
KPD3 162117Z 35020KT 11/03 A3001 RMK A01 T01080031  RH  059%=      5-min Rain = 0
KPD3 162118Z 36020KT 11/03 A3001 RMK A01 T01070033  RH  060%=      5-min Rain = 0
KPD3 162119Z 34021G26KT 11/03 A3001 RMK A01 T01070034  RH  061%=      5-min Rain = 0
KPD3 162120Z 35019KT 11/03 A3001 RMK A01 T01070033  RH  060%=      5-min Rain = 0
KPD3 162121Z 35018G23KT 11/03 A3002 RMK A01 T01070034  RH  061%=      5-min Rain = 0
KPD3 162122Z 00021G26KT 11/03 A3002 RMK A01 T01070033  RH  060%=      5-min Rain = 0
KPD3 162123Z 36021KT 11/03 A3002 RMK A01 T01070032  RH  060%=      5-min Rain = 0
KPD3 162124Z 36021KT 11/03 A3002 RMK A01 T01050032  RH  060%=      5-min Rain = 0
KPD3 162125Z 35023G28KT 11/03 A3002 RMK A01 T01050031  RH  061%=      5-min Rain = 0
KPD3 162126Z 35021G26KT 10/03 A3002 RMK A01 T01030029  RH  060%=      5-min Rain = 0
KPD3 162127Z 35021KT 10/03 A3002 RMK A01 T01020030  RH  061%=      5-min Rain = 0
KPD3 162128Z 35021KT 10/03 A3002 RMK A01 T01020031  RH  061%=      5-min Rain = 0
KPD3 162129Z 35020KT 10/03 A3002 RMK A01 T01020032  RH  062%=      5-min Rain = 0
KPD3 162130Z 35019KT 10/03 A3002 RMK A01 T01010031  RH  062%=      5-min Rain = 0
KPD3 162131Z 00019KT 10/03 A3002 RMK A01 T01010033  RH  063%=      5-min Rain = 0
KPD3 162132Z 35016KT 10/03 A3002 RMK A01 T01020034  RH  063%=      5-min Rain = 0
KPD3 162133Z 35018G23KT 10/04 A3002 RMK A01 T01030036  RH  063%=      5-min Rain = 0
KPD3 162134Z 35021G27KT 10/03 A3002 RMK A01 T01040033  RH  061%=      5-min Rain = 0
KPD3 162135Z 35020KT 10/03 A3002 RMK A01 T01030029  RH  060%=      5-min Rain = 0
KPD3 162136Z 35021KT 10/03 A3002 RMK A01 T01020029  RH  060%=      5-min Rain = 0
KPD3 162137Z 34018G23KT 10/03 A3002 RMK A01 T01020031  RH  061%=      5-min Rain = 0
KPD3 162138Z 34020KT 10/03 A3002 RMK A01 T01040030  RH  060%=      5-min Rain = 0
KPD3 162139Z 35019KT 10/03 A3002 RMK A01 T01040029  RH  060%=      5-min Rain = 0
KPD3 162140Z 35018KT 10/03 A3002 RMK A01 T01030028  RH  060%=      5-min Rain = 0
KPD3 162141Z 35016G21KT 10/03 A3002 RMK A01 T01030029  RH  060%=      5-min Rain = 0
KPD3 162142Z 36019KT 10/03 A3002 RMK A01 T01030030  RH  060%=      5-min Rain = 0
KPD3 162143Z 36018G24KT 10/03 A3002 RMK A01 T01030032  RH  061%=      5-min Rain = 0
KPD3 162144Z 35021KT 10/03 A3002 RMK A01 T01030032  RH  061%=      5-min Rain = 0
KPD3 162145Z 34020G26KT 10/03 A3002 RMK A01 T01010030  RH  061%=      5-min Rain = 0
KPD3 162146Z 34021KT 10/03 A3002 RMK A01 T00980029  RH  062%=      5-min Rain = 0
KPD3 162147Z 00019KT 10/03 A3002 RMK A01 T00980031  RH  063%=      5-min Rain = 0
KPD3 162148Z 00024KT 10/03 A3003 RMK A01 T00970030  RH  063%=      5-min Rain = 0
KPD3 162149Z 35022G27KT 10/03 A3002 RMK A01 T00970028  RH  063%=      5-min Rain = 0
KPD3 162150Z 00022KT 10/03 A3002 RMK A01 T00950028  RH  063%=      5-min Rain = 0
KPD3 162151Z 35020KT 10/03 A3003 RMK A01 T00950028  RH  063%=      5-min Rain = 0
KPD3 162152Z 36021G27KT 10/03 A3003 RMK A01 T00950028  RH  063%=      5-min Rain = 0
KPD3 162153Z 00021G28KT 10/03 A3003 RMK A01 T00950026  RH  062%=      5-min Rain = 0
KPD3 162154Z 36020G25KT 10/02 A3003 RMK A01 T00950023  RH  061%=      5-min Rain = 0
KPD3 162155Z 35021KT 09/02 A3003 RMK A01 T00940021  RH  060%=      5-min Rain = 0
KPD3 162156Z 36018KT 09/02 A3003 RMK A01 T00940022  RH  061%=      5-min Rain = 0
KPD3 162157Z 35021KT 10/02 A3003 RMK A01 T00950022  RH  060%=      5-min Rain = 0
KPD3 162158Z 35020KT 10/02 A3002 RMK A01 T00960022  RH  060%=      5-min Rain = 0
KPD3 162159Z 35021KT 10/02 A3003 RMK A01 T00970022  RH  060%=      5-min Rain = 0
KPD3 162200Z 36019KT 10/02 A3003 RMK A01 T00960021  RH  060%=      5-min Rain = 0
KPD3 162201Z 35017G23KT 10/02 A3003 RMK A01 T00950022  RH  061%=      5-min Rain = 0
KPD3 162202Z 00021KT 09/02 A3003 RMK A01 T00940023  RH  061%=      5-min Rain = 0
KPD3 162203Z 36020G25KT 09/02 A3003 RMK A01 T00940023  RH  061%=      5-min Rain = 0
KPD3 162204Z 36022G27KT 09/02 A3003 RMK A01 T00930023  RH  061%=      5-min Rain = 0
KPD3 162205Z 35020G25KT 09/02 A3003 RMK A01 T00930024  RH  062%=      5-min Rain = 0
KPD3 162206Z 35021KT 09/02 A3003 RMK A01 T00930021  RH  061%=      5-min Rain = 0
KPD3 162207Z 35018KT 09/02 A3003 RMK A01 T00920020  RH  061%=      5-min Rain = 0
KPD3 162208Z 35021KT 09/02 A3003 RMK A01 T00920021  RH  061%=      5-min Rain = 0
KPD3 162209Z 35021G28KT 09/02 A3003 RMK A01 T00930022  RH  061%=      5-min Rain = 0
KPD3 162210Z 36021KT 09/02 A3003 RMK A01 T00920021  RH  061%=      5-min Rain = 0
KPD3 162211Z 36016KT 09/02 A3003 RMK A01 T00910023  RH  062%=      5-min Rain = 0
KPD3 162212Z 36020G25KT 09/02 A3003 RMK A01 T00920024  RH  063%=      5-min Rain = 0
KPD3 162213Z 36022G27KT 09/02 A3003 RMK A01 T00920023  RH  062%=      5-min Rain = 0
KPD3 162214Z 35019KT 09/02 A3003 RMK A01 T00920022  RH  061%=      5-min Rain = 0
KPD3 162215Z 35022KT 09/02 A3003 RMK A01 T00920022  RH  062%=      5-min Rain = 0
KPD3 162216Z 36020KT 09/02 A3003 RMK A01 T00920022  RH  062%=      5-min Rain = 0
KPD3 162217Z 00017KT 09/03 A3003 RMK A01 T00940025  RH  062%=      5-min Rain = 0
KPD3 162218Z 01019G24KT 10/03 A3003 RMK A01 T00990029  RH  062%=      5-min Rain = 0
KPD3 162219Z 00019G24KT 10/03 A3003 RMK A01 T00990026  RH  060%=      5-min Rain = 0
KPD3 162220Z 35020KT 10/03 A3003 RMK A01 T00990026  RH  060%=      5-min Rain = 0
KPD3 162221Z 36016KT 10/02 A3003 RMK A01 T00980023  RH  059%=      5-min Rain = 0
KPD3 162222Z 00020KT 10/03 A3003 RMK A01 T00980026  RH  061%=      5-min Rain = 0
KPD3 162223Z 00018KT 10/03 A3003 RMK A01 T00980025  RH  060%=      5-min Rain = 0
KPD3 162224Z 01019KT 10/03 A3003 RMK A01 T00980026  RH  061%=      5-min Rain = 0
KPD3 162225Z 36016G21KT 10/03 A3003 RMK A01 T01020032  RH  061%=      5-min Rain = 0
KPD3 162226Z 36020G27KT 11/03 A3003 RMK A01 T01060030  RH  059%=      5-min Rain = 0
KPD3 162227Z 01019KT 11/03 A3003 RMK A01 T01070028  RH  058%=      5-min Rain = 0
KPD3 162228Z 36017KT 11/03 A3003 RMK A01 T01070027  RH  057%=      5-min Rain = 0
KPD3 162229Z 35019G24KT 11/03 A3003 RMK A01 T01090028  RH  057%=      5-min Rain = 0
KPD3 162230Z 35019G24KT 11/03 A3003 RMK A01 T01090025  RH  056%=      5-min Rain = 0
KPD3 162231Z 36018KT 11/03 A3003 RMK A01 T01080026  RH  057%=      5-min Rain = 0
KPD3 162232Z 00020KT 11/03 A3003 RMK A01 T01070025  RH  057%=      5-min Rain = 0
KPD3 162233Z 00019KT 11/03 A3003 RMK A01 T01050025  RH  057%=      5-min Rain = 0
KPD3 162234Z 01019KT 10/02 A3003 RMK A01 T01030023  RH  058%=      5-min Rain = 0
KPD3 162235Z 01021KT 10/02 A3003 RMK A01 T01000023  RH  059%=      5-min Rain = 0
KPD3 162236Z 00021KT 10/03 A3003 RMK A01 T01010026  RH  060%=      5-min Rain = 0
KPD3 162237Z 35018KT 10/03 A3003 RMK A01 T01040026  RH  058%=      5-min Rain = 0
KPD3 162238Z 00016KT 11/03 A3003 RMK A01 T01050026  RH  058%=      5-min Rain = 0
KPD3 162239Z 01021G26KT 11/03 A3003 RMK A01 T01100030  RH  058%=      5-min Rain = 0
KPD3 162240Z 00021G26KT 11/03 A3003 RMK A01 T01110027  RH  056%=      5-min Rain = 0
KPD3 162241Z 35019KT 11/03 A3004 RMK A01 T01110028  RH  056%=      5-min Rain = 0
KPD3 162242Z 36021G26KT 11/03 A3004 RMK A01 T01120028  RH  056%=      5-min Rain = 0
KPD3 162243Z 00016G21KT 11/03 A3004 RMK A01 T01120026  RH  055%=      5-min Rain = 0
KPD3 162244Z 01016G22KT 11/03 A3004 RMK A01 T01130030  RH  057%=      5-min Rain = 0
KPD3 162245Z 01019G24KT 11/03 A3004 RMK A01 T01130026  RH  055%=      5-min Rain = 0
KPD3 162246Z 01015G20KT 11/03 A3004 RMK A01 T01090026  RH  056%=      5-min Rain = 0
KPD3 162247Z 01019KT 11/02 A3004 RMK A01 T01060024  RH  057%=      5-min Rain = 0
KPD3 162248Z 01017G23KT 10/02 A3004 RMK A01 T01010020  RH  057%=      5-min Rain = 0
KPD3 162249Z 01017KT 10/02 A3005 RMK A01 T00990023  RH  059%=      5-min Rain = 0
KPD3 162250Z 00017KT 10/02 A3005 RMK A01 T00980022  RH  059%=      5-min Rain = 0
KPD3 162251Z 01018KT 10/02 A3005 RMK A01 T00980023  RH  059%=      5-min Rain = 0
KPD3 162252Z 00020KT 10/02 A3005 RMK A01 T00990023  RH  059%=      5-min Rain = 0
KPD3 162253Z 01015KT 10/02 A3005 RMK A01 T00980024  RH  060%=      5-min Rain = 0
KPD3 162254Z 00015G22KT 10/03 A3005 RMK A01 T00980026  RH  061%=      5-min Rain = 0
KPD3 162255Z 01017G23KT 10/02 A3005 RMK A01 T00980024  RH  060%=      5-min Rain = 0
KPD3 162256Z 35017G24KT 10/03 A3005 RMK A01 T00980025  RH  060%=      5-min Rain = 0
KPD3 162257Z 35021G26KT 10/02 A3005 RMK A01 T00980023  RH  060%=      5-min Rain = 0
KPD3 162258Z 35020KT 10/02 A3005 RMK A01 T00960022  RH  060%=      5-min Rain = 0
KPD3 162259Z 35019G24KT 10/02 A3005 RMK A01 T00950022  RH  060%=      5-min Rain = 0
KPD3 162300Z 35022KT 09/02 A3005 RMK A01 T00940022  RH  061%=      5-min Rain = 0
KPD3 162301Z 36021KT 09/02 A3005 RMK A01 T00930020  RH  060%=      5-min Rain = 0
KPD3 162302Z 00019KT 09/02 A3005 RMK A01 T00920019  RH  060%=      5-min Rain = 0
KPD3 162303Z 35019G26KT 09/02 A3005 RMK A01 T00920021  RH  061%=      5-min Rain = 0
KPD3 162304Z 36018KT 09/02 A3005 RMK A01 T00920020  RH  061%=      5-min Rain = 0
KPD3 162305Z 36017KT 09/02 A3005 RMK A01 T00920022  RH  062%=      5-min Rain = 0
KPD3 162306Z 35018KT 09/02 A3005 RMK A01 T00930023  RH  062%=      5-min Rain = 0
KPD3 162307Z 36022KT 09/02 A3005 RMK A01 T00940022  RH  061%=      5-min Rain = 0
KPD3 162308Z 00022KT 09/02 A3005 RMK A01 T00940021  RH  060%=      5-min Rain = 0
KPD3 162309Z 36020G25KT 10/02 A3005 RMK A01 T00950020  RH  060%=      5-min Rain = 0
KPD3 162310Z 00019KT 09/02 A3005 RMK A01 T00940021  RH  060%=      5-min Rain = 0
KPD3 162311Z 00022G27KT 09/02 A3005 RMK A01 T00930020  RH  060%=      5-min Rain = 0
KPD3 162312Z 00020G25KT 09/02 A3005 RMK A01 T00920019  RH  060%=      5-min Rain = 0
KPD3 162313Z 00019KT 09/02 A3005 RMK A01 T00910019  RH  061%=      5-min Rain = 0
KPD3 162314Z 36019KT 09/02 A3005 RMK A01 T00920020  RH  061%=      5-min Rain = 0
KPD3 162315Z 00020KT 09/02 A3005 RMK A01 T00920020  RH  061%=      5-min Rain = 0
KPD3 162316Z 00021KT 09/02 A3006 RMK A01 T00920019  RH  061%=      5-min Rain = 0
KPD3 162317Z 35022KT 09/02 A3005 RMK A01 T00910020  RH  061%=      5-min Rain = 0
KPD3 162318Z 35020KT 09/02 A3006 RMK A01 T00910019  RH  061%=      5-min Rain = 0
KPD3 162319Z 35021KT 09/02 A3006 RMK A01 T00910018  RH  060%=      5-min Rain = 0
KPD3 162320Z 35020KT 09/02 A3006 RMK A01 T00900018  RH  061%=      5-min Rain = 0
KPD3 162321Z 36016G21KT 09/02 A3006 RMK A01 T00910019  RH  061%=      5-min Rain = 0
KPD3 162322Z 00018G23KT 09/02 A3006 RMK A01 T00910019  RH  061%=      5-min Rain = 0
KPD3 162323Z 35023KT 09/02 A3006 RMK A01 T00910018  RH  060%=      5-min Rain = 0
KPD3 162324Z 35024KT 09/02 A3006 RMK A01 T00900016  RH  060%=      5-min Rain = 0
KPD3 162325Z 35020G25KT 09/02 A3006 RMK A01 T00890015  RH  060%=      5-min Rain = 0
KPD3 162326Z 36022KT 09/02 A3006 RMK A01 T00890017  RH  061%=      5-min Rain = 0
KPD3 162327Z 00020KT 09/02 A3006 RMK A01 T00890017  RH  060%=      5-min Rain = 0
KPD3 162328Z 00018KT 09/02 A3006 RMK A01 T00890018  RH  061%=      5-min Rain = 0
KPD3 162329Z 00015KT 09/02 A3006 RMK A01 T00890019  RH  062%=      5-min Rain = 0
KPD3 162330Z 36018G23KT 09/02 A3006 RMK A01 T00900022  RH  062%=      5-min Rain = 0
KPD3 162331Z 35019KT 09/02 A3006 RMK A01 T00910021  RH  061%=      5-min Rain = 0
KPD3 162332Z 36019KT 09/02 A3006 RMK A01 T00910019  RH  061%=      5-min Rain = 0
KPD3 162333Z 35019G26KT 09/02 A3006 RMK A01 T00900020  RH  062%=      5-min Rain = 0
KPD3 162334Z 35019G26KT 09/02 A3006 RMK A01 T00890019  RH  061%=      5-min Rain = 0
KPD3 162335Z 35022KT 09/02 A3006 RMK A01 T00880017  RH  061%=      5-min Rain = 0
KPD3 162336Z 00022KT 09/02 A3006 RMK A01 T00870016  RH  061%=      5-min Rain = 0
KPD3 162337Z 01020KT 09/02 A3006 RMK A01 T00860016  RH  061%=      5-min Rain = 0
KPD3 162338Z 01020G25KT 09/02 A3006 RMK A01 T00860016  RH  061%=      5-min Rain = 0
KPD3 162339Z 01018KT 09/02 A3006 RMK A01 T00860016  RH  062%=      5-min Rain = 0
KPD3 162340Z 00019KT 09/02 A3007 RMK A01 T00860017  RH  062%=      5-min Rain = 0
KPD3 162341Z 35017KT 09/02 A3007 RMK A01 T00860017  RH  062%=      5-min Rain = 0
KPD3 162342Z 36022G27KT 09/02 A3007 RMK A01 T00850018  RH  062%=      5-min Rain = 0
KPD3 162343Z 01019G25KT 09/02 A3007 RMK A01 T00850017  RH  062%=      5-min Rain = 0
KPD3 162344Z 00023KT 09/02 A3007 RMK A01 T00850018  RH  062%=      5-min Rain = 0
KPD3 162345Z 36023G30KT 08/02 A3007 RMK A01 T00840017  RH  062%=      5-min Rain = 0
KPD3 162346Z 35017KT 08/02 A3007 RMK A01 T00830017  RH  063%=      5-min Rain = 0
KPD3 162347Z 36023G30KT 08/02 A3007 RMK A01 T00830017  RH  063%=      5-min Rain = 0
KPD3 162348Z 35022G27KT 08/01 A3007 RMK A01 T00830014  RH  062%=      5-min Rain = 0
KPD3 162349Z 36023KT 08/01 A3007 RMK A01 T00820014  RH  062%=      5-min Rain = 0
KPD3 162350Z 36019KT 08/02 A3007 RMK A01 T00820015  RH  063%=      5-min Rain = 0
KPD3 162351Z 00019KT 08/02 A3007 RMK A01 T00830017  RH  063%=      5-min Rain = 0
KPD3 162352Z 00020G25KT 08/02 A3007 RMK A01 T00830017  RH  063%=      5-min Rain = 0
KPD3 162353Z 35015KT 08/02 A3007 RMK A01 T00830018  RH  064%=      5-min Rain = 0
KPD3 162354Z 36014KT 08/02 A3007 RMK A01 T00840019  RH  064%=      5-min Rain = 0
KPD3 162355Z 35017G22KT 08/02 A3007 RMK A01 T00840020  RH  064%=      5-min Rain = 0
KPD3 162356Z 36018KT 09/02 A3007 RMK A01 T00850017  RH  063%=      5-min Rain = 0
KPD3 162357Z 36019G25KT 08/02 A3007 RMK A01 T00840017  RH  062%=      5-min Rain = 0
KPD3 162358Z 01018KT 08/02 A3008 RMK A01 T00840017  RH  063%=      5-min Rain = 0
KPD3 162359Z 00020KT 08/02 A3008 RMK A01 T00830015  RH  062%=      5-min Rain = 0
KPD3 170000Z 01018KT 08/01 A3008 RMK A01 T00820014  RH  062%=      5-min Rain = 0
KPD3 170001Z 01017KT 08/01 A3008 RMK A01 T00820014  RH  062%=      5-min Rain = 0
KPD3 170002Z 01018KT 08/01 A3008 RMK A01 T00810014  RH  063%=      5-min Rain = 0
KPD3 170003Z 02017KT 08/01 A3007 RMK A01 T00810014  RH  063%=      5-min Rain = 0
KPD3 170004Z 01019KT 08/01 A3007 RMK A01 T00810013  RH  062%=      5-min Rain = 0
KPD3 170005Z 02017KT 08/01 A3008 RMK A01 T00810014  RH  063%=      5-min Rain = 0
KPD3 170006Z 01015KT 08/02 A3008 RMK A01 T00810015  RH  063%=      5-min Rain = 0
KPD3 170007Z 01013KT 08/02 A3008 RMK A01 T00810017  RH  064%=      5-min Rain = 0
KPD3 170008Z 36013G18KT 08/02 A3008 RMK A01 T00820018  RH  064%=      5-min Rain = 0
KPD3 170009Z 36016G21KT 08/02 A3007 RMK A01 T00820017  RH  063%=      5-min Rain = 0
KPD3 170010Z 36018G23KT 08/02 A3007 RMK A01 T00830016  RH  063%=      5-min Rain = 0
KPD3 170011Z 01014G19KT 08/02 A3007 RMK A01 T00830016  RH  063%=      5-min Rain = 0
KPD3 170012Z 35017G22KT 08/02 A3007 RMK A01 T00830017  RH  063%=      5-min Rain = 0
KPD3 170013Z 35018KT 08/02 A3007 RMK A01 T00830016  RH  063%=      5-min Rain = 0
KPD3 170014Z 35019KT 08/02 A3007 RMK A01 T00820016  RH  063%=      5-min Rain = 0
KPD3 170015Z 35018KT 08/02 A3007 RMK A01 T00820015  RH  063%=      5-min Rain = 0
KPD3 170016Z 35017KT 08/02 A3007 RMK A01 T00810015  RH  063%=      5-min Rain = 0
KPD3 170017Z 35016KT 08/02 A3008 RMK A01 T00820016  RH  063%=      5-min Rain = 0
KPD3 170018Z 00019KT 08/02 A3008 RMK A01 T00820017  RH  064%=      5-min Rain = 0
KPD3 170019Z 36018KT 08/02 A3008 RMK A01 T00810015  RH  063%=      5-min Rain = 0
KPD3 170020Z 35023G28KT 08/02 A3008 RMK A01 T00800015  RH  063%=      5-min Rain = 0
KPD3 170021Z 00021KT 08/02 A3008 RMK A01 T00800016  RH  064%=      5-min Rain = 0
KPD3 170022Z 35021G26KT 08/02 A3008 RMK A01 T00800015  RH  063%=      5-min Rain = 0
KPD3 170023Z 00020KT 08/02 A3008 RMK A01 T00800015  RH  063%=      5-min Rain = 0
KPD3 170024Z 00020KT 08/02 A3008 RMK A01 T00800015  RH  064%=      5-min Rain = 0
KPD3 170025Z 00016KT 08/02 A3008 RMK A01 T00800016  RH  064%=      5-min Rain = 0
KPD3 170026Z 36018G23KT 08/02 A3008 RMK A01 T00800017  RH  064%=      5-min Rain = 0
KPD3 170027Z 35018KT 08/02 A3008 RMK A01 T00800016  RH  064%=      5-min Rain = 0
KPD3 170028Z 00017KT 08/02 A3008 RMK A01 T00800016  RH  064%=      5-min Rain = 0
KPD3 170029Z 36020KT 08/02 A3008 RMK A01 T00800017  RH  064%=      5-min Rain = 0
KPD3 170030Z 36019KT 08/02 A3008 RMK A01 T00800016  RH  064%=      5-min Rain = 0
KPD3 170031Z 00017KT 08/02 A3008 RMK A01 T00790016  RH  064%=      5-min Rain = 0
KPD3 170032Z 36015KT 08/02 A3008 RMK A01 T00800017  RH  065%=      5-min Rain = 0
KPD3 170033Z 35015G20KT 08/02 A3008 RMK A01 T00790018  RH  065%=      5-min Rain = 0
KPD3 170034Z 35017KT 08/02 A3008 RMK A01 T00800017  RH  065%=      5-min Rain = 0
KPD3 170035Z 35017G22KT 08/02 A3009 RMK A01 T00800017  RH  065%=      5-min Rain = 0
KPD3 170036Z 00016KT 08/02 A3009 RMK A01 T00790016  RH  065%=      5-min Rain = 0
KPD3 170037Z 36013KT 08/02 A3009 RMK A01 T00790018  RH  065%=      5-min Rain = 0
KPD3 170038Z 35018KT 08/02 A3009 RMK A01 T00790018  RH  065%=      5-min Rain = 0
KPD3 170039Z 00014KT 08/02 A3009 RMK A01 T00790017  RH  065%=      5-min Rain = 0
KPD3 170040Z 00013KT 08/02 A3009 RMK A01 T00790018  RH  065%=      5-min Rain = 0
KPD3 170041Z 01015KT 08/02 A3009 RMK A01 T00790018  RH  065%=      5-min Rain = 0
KPD3 170042Z 00017KT 08/02 A3009 RMK A01 T00780016  RH  065%=      5-min Rain = 0
KPD3 170043Z 01016G21KT 08/02 A3009 RMK A01 T00780015  RH  064%=      5-min Rain = 0
KPD3 170044Z 01018KT 08/01 A3009 RMK A01 T00780013  RH  063%=      5-min Rain = 0
KPD3 170045Z 01016KT 08/01 A3009 RMK A01 T00780013  RH  064%=      5-min Rain = 0
KPD3 170046Z 00018KT 08/01 A3009 RMK A01 T00780013  RH  064%=      5-min Rain = 0
KPD3 170047Z 01019KT 08/01 A3009 RMK A01 T00780012  RH  063%=      5-min Rain = 0
KPD3 170048Z 02020KT 08/01 A3009 RMK A01 T00770012  RH  063%=      5-min Rain = 0
KPD3 170049Z 01020KT 08/01 A3009 RMK A01 T00770012  RH  063%=      5-min Rain = 0
KPD3 170050Z 01022KT 08/01 A3009 RMK A01 T00770012  RH  063%=      5-min Rain = 0
KPD3 170051Z 01021KT 08/01 A3009 RMK A01 T00770012  RH  063%=      5-min Rain = 0
KPD3 170052Z 00021KT 08/01 A3009 RMK A01 T00770012  RH  063%=      5-min Rain = 0
KPD3 170053Z 36016KT 08/01 A3009 RMK A01 T00770010  RH  063%=      5-min Rain = 0
KPD3 170054Z 00015KT 08/01 A3009 RMK A01 T00760011  RH  063%=      5-min Rain = 0
KPD3 170055Z 36016KT 08/01 A3009 RMK A01 T00760011  RH  063%=      5-min Rain = 0
KPD3 170056Z 00016KT 08/01 A3009 RMK A01 T00750010  RH  063%=      5-min Rain = 0
KPD3 170057Z 36018G23KT 08/01 A3009 RMK A01 T00750009  RH  063%=      5-min Rain = 0
KPD3 170058Z 00019G24KT 08/01 A3009 RMK A01 T00750009  RH  063%=      5-min Rain = 0
KPD3 170059Z 36019KT 08/01 A3009 RMK A01 T00750009  RH  063%=      5-min Rain = 0
KPD3 170100Z 00020KT 08/01 A3009 RMK A01 T00750009  RH  063%=      5-min Rain = 0
KPD3 170101Z 00018KT 08/01 A3009 RMK A01 T00750009  RH  063%=      5-min Rain = 0
KPD3 170102Z 01017KT 08/01 A3009 RMK A01 T00750009  RH  063%=      5-min Rain = 0
KPD3 170103Z 01017KT 08/01 A3009 RMK A01 T00750010  RH  064%=      5-min Rain = 0
KPD3 170104Z 01019KT 08/01 A301 RMK A01 T00750010  RH  064%=      5-min Rain = 0
KPD3 170105Z 01019KT 08/01 A301 RMK A01 T00750009  RH  063%=      5-min Rain = 0
KPD3 170106Z 01017G22KT 08/01 A3009 RMK A01 T00750010  RH  063%=      5-min Rain = 0
KPD3 170107Z 00018G23KT 08/01 A301 RMK A01 T00750010  RH  063%=      5-min Rain = 0
KPD3 170108Z 00015G22KT 08/01 A301 RMK A01 T00750010  RH  063%=      5-min Rain = 0
KPD3 170109Z 01016KT 08/01 A301 RMK A01 T00750010  RH  063%=      5-min Rain = 0
KPD3 170110Z 01018KT 08/01 A301 RMK A01 T00750010  RH  063%=      5-min Rain = 0
KPD3 170111Z 01020KT 08/01 A301 RMK A01 T00750009  RH  063%=      5-min Rain = 0
KPD3 170112Z 01016KT 08/01 A301 RMK A01 T00750009  RH  063%=      5-min Rain = 0
KPD3 170113Z 00018KT 08/01 A301 RMK A01 T00750009  RH  063%=      5-min Rain = 0
KPD3 170114Z 01013KT 08/01 A301 RMK A01 T00750010  RH  063%=      5-min Rain = 0
KPD3 170115Z 01017KT 08/01 A301 RMK A01 T00750011  RH  064%=      5-min Rain = 0
KPD3 170116Z 01015KT 08/01 A301 RMK A01 T00750011  RH  064%=      5-min Rain = 0
KPD3 170117Z 01015KT 08/01 A301 RMK A01 T00750011  RH  064%=      5-min Rain = 0
KPD3 170118Z 02016KT 08/01 A301 RMK A01 T00750011  RH  064%=      5-min Rain = 0
KPD3 170119Z 02015KT 07/01 A301 RMK A01 T00740011  RH  064%=      5-min Rain = 0
KPD3 170120Z 01015KT 07/01 A301 RMK A01 T00740011  RH  064%=      5-min Rain = 0
KPD3 170121Z 01014KT 07/01 A301 RMK A01 T00740012  RH  065%=      5-min Rain = 0
KPD3 170122Z 02014KT 07/01 A301 RMK A01 T00730011  RH  065%=      5-min Rain = 0
KPD3 170123Z 01013KT 07/01 A301 RMK A01 T00730011  RH  065%=      5-min Rain = 0
KPD3 170124Z 02014KT 07/01 A301 RMK A01 T00730011  RH  065%=      5-min Rain = 0
KPD3 170125Z 02013KT 07/01 A301 RMK A01 T00720010  RH  065%=      5-min Rain = 0
KPD3 170126Z 02013KT 07/01 A301 RMK A01 T00710011  RH  065%=      5-min Rain = 0
KPD3 170127Z 01013KT 07/01 A301 RMK A01 T00710011  RH  065%=      5-min Rain = 0
KPD3 170128Z 02011KT 07/01 A301 RMK A01 T00710012  RH  066%=      5-min Rain = 0
KPD3 170129Z 02014KT 07/01 A301 RMK A01 T00700011  RH  066%=      5-min Rain = 0
KPD3 170130Z 02013KT 07/01 A301 RMK A01 T00700011  RH  066%=      5-min Rain = 0
KPD3 170131Z 01012KT 07/01 A3011 RMK A01 T00700011  RH  066%=      5-min Rain = 0
KPD3 170132Z 02010KT 07/01 A3011 RMK A01 T00690012  RH  067%=      5-min Rain = 0
KPD3 170133Z 02014KT 07/01 A3011 RMK A01 T00680012  RH  067%=      5-min Rain = 0
KPD3 170134Z 02013KT 07/01 A301 RMK A01 T00680010  RH  067%=      5-min Rain = 0
KPD3 170135Z 02012KT 07/01 A301 RMK A01 T00680011  RH  067%=      5-min Rain = 0
KPD3 170136Z 02013KT 07/01 A301 RMK A01 T00680011  RH  067%=      5-min Rain = 0
KPD3 170137Z 02012KT 07/01 A301 RMK A01 T00680010  RH  067%=      5-min Rain = 0
KPD3 170138Z 02013KT 07/01 A301 RMK A01 T00680011  RH  067%=      5-min Rain = 0
KPD3 170139Z 02013KT 07/01 A301 RMK A01 T00680011  RH  067%=      5-min Rain = 0
KPD3 170140Z 02011KT 07/01 A301 RMK A01 T00680011  RH  067%=      5-min Rain = 0
KPD3 170141Z 02010KT 07/01 A3011 RMK A01 T00670012  RH  068%=      5-min Rain = 0
KPD3 170142Z 02011KT 07/01 A301 RMK A01 T00660012  RH  068%=      5-min Rain = 0
KPD3 170143Z 02014KT 07/01 A301 RMK A01 T00660012  RH  068%=      5-min Rain = 0
KPD3 170144Z 02012KT 07/01 A301 RMK A01 T00660011  RH  068%=      5-min Rain = 0
KPD3 170145Z 02014KT 07/01 A301 RMK A01 T00660010  RH  068%=      5-min Rain = 0
KPD3 170146Z 02012KT 07/01 A301 RMK A01 T00660010  RH  067%=      5-min Rain = 0
KPD3 170147Z 02013KT 07/01 A301 RMK A01 T00660010  RH  067%=      5-min Rain = 0
KPD3 170148Z 02012KT 07/01 A301 RMK A01 T00660009  RH  067%=      5-min Rain = 0
KPD3 170149Z 02012KT 07/01 A301 RMK A01 T00660009  RH  067%=      5-min Rain = 0
KPD3 170150Z 02013KT 07/01 A3011 RMK A01 T00650008  RH  067%=      5-min Rain = 0
KPD3 170151Z 01011KT 07/01 A3011 RMK A01 T00650008  RH  067%=      5-min Rain = 0
KPD3 170152Z 02012KT 06/01 A3011 RMK A01 T00640009  RH  067%=      5-min Rain = 0
KPD3 170153Z 02012KT 06/01 A3011 RMK A01 T00640008  RH  067%=      5-min Rain = 0
KPD3 170154Z 02011KT 06/01 A3011 RMK A01 T00640008  RH  067%=      5-min Rain = 0
KPD3 170155Z 02013KT 06/01 A3011 RMK A01 T00630008  RH  068%=      5-min Rain = 0
KPD3 170156Z 02011KT 06/01 A3011 RMK A01 T00630008  RH  067%=      5-min Rain = 0
KPD3 170157Z 02010KT 06/01 A3011 RMK A01 T00630007  RH  067%=      5-min Rain = 0
KPD3 170158Z 02011KT 06/01 A3011 RMK A01 T00630008  RH  068%=      5-min Rain = 0
KPD3 170159Z 02011KT 06/01 A3011 RMK A01 T00630008  RH  068%=      5-min Rain = 0
KPD3 170200Z 02012KT 06/01 A3011 RMK A01 T00620008  RH  068%=      5-min Rain = 0
KPD3 170201Z 02010KT 06/01 A3011 RMK A01 T00620008  RH  068%=      5-min Rain = 0
KPD3 170202Z 02009KT 06/01 A3011 RMK A01 T00620008  RH  069%=      5-min Rain = 0
KPD3 170203Z 02009KT 06/01 A3011 RMK A01 T00610008  RH  069%=      5-min Rain = 0
KPD3 170204Z 02010KT 06/01 A3011 RMK A01 T00600009  RH  069%=      5-min Rain = 0
KPD3 170205Z 02009KT 06/01 A3011 RMK A01 T00600009  RH  070%=      5-min Rain = 0
KPD3 170206Z 02010KT 06/01 A3011 RMK A01 T00600009  RH  070%=      5-min Rain = 0
KPD3 170207Z 02010KT 06/01 A3011 RMK A01 T00600008  RH  070%=      5-min Rain = 0
KPD3 170208Z 02011KT 06/01 A3011 RMK A01 T00600008  RH  069%=      5-min Rain = 0
KPD3 170209Z 02014KT 06/01 A3011 RMK A01 T00610008  RH  069%=      5-min Rain = 0
KPD3 170210Z 02012KT 06/01 A3011 RMK A01 T00620008  RH  068%=      5-min Rain = 0
KPD3 170211Z 02010KT 06/01 A3011 RMK A01 T00630009  RH  068%=      5-min Rain = 0
KPD3 170212Z 02010KT 06/01 A3011 RMK A01 T00620009  RH  069%=      5-min Rain = 0
KPD3 170213Z 02009KT 06/01 A3012 RMK A01 T00620009  RH  069%=      5-min Rain = 0
KPD3 170214Z 02010KT 06/01 A3012 RMK A01 T00610009  RH  069%=      5-min Rain = 0
KPD3 170215Z 02010KT 06/01 A3012 RMK A01 T00610009  RH  069%=      5-min Rain = 0
KPD3 170216Z 02010KT 06/01 A3012 RMK A01 T00610010  RH  070%=      5-min Rain = 0
KPD3 170217Z 02010KT 06/01 A3012 RMK A01 T00610009  RH  070%=      5-min Rain = 0
KPD3 170218Z 01009KT 06/01 A3012 RMK A01 T00600010  RH  070%=      5-min Rain = 0
KPD3 170219Z 01010KT 06/01 A3012 RMK A01 T00600009  RH  070%=      5-min Rain = 0
KPD3 170220Z 01009KT 06/01 A3012 RMK A01 T00600009  RH  070%=      5-min Rain = 0
KPD3 170221Z 01009KT 06/01 A3012 RMK A01 T00600010  RH  070%=      5-min Rain = 0
KPD3 170222Z 01010KT 06/01 A3012 RMK A01 T00600010  RH  070%=      5-min Rain = 0
KPD3 170223Z 01009KT 06/01 A3013 RMK A01 T00600009  RH  070%=      5-min Rain = 0
KPD3 170224Z 01008KT 06/01 A3013 RMK A01 T00600010  RH  070%=      5-min Rain = 0
KPD3 170225Z 01008KT 06/01 A3013 RMK A01 T00600010  RH  070%=      5-min Rain = 0
KPD3 170226Z 01009KT 06/01 A3013 RMK A01 T00590010  RH  070%=      5-min Rain = 0
KPD3 170227Z 36009KT 06/01 A3014 RMK A01 T00590009  RH  070%=      5-min Rain = 0
KPD3 170228Z 01008KT 06/01 A3014 RMK A01 T00590009  RH  070%=      5-min Rain = 0
KPD3 170229Z 00008KT 06/01 A3014 RMK A01 T00590010  RH  071%=      5-min Rain = 0
KPD3 170230Z 36007KT 06/01 A3014 RMK A01 T00590010  RH  071%=      5-min Rain = 0
KPD3 170231Z 35007KT 06/01 A3014 RMK A01 T00590010  RH  071%=      5-min Rain = 0
KPD3 170232Z 35007KT 06/01 A3014 RMK A01 T00580010  RH  071%=      5-min Rain = 0
KPD3 170233Z 35008KT 06/01 A3014 RMK A01 T00580010  RH  071%=      5-min Rain = 0
KPD3 170234Z 35007KT 06/01 A3015 RMK A01 T00580010  RH  071%=      5-min Rain = 0
KPD3 170235Z 34005KT 06/01 A3015 RMK A01 T00580011  RH  072%=      5-min Rain = 0
KPD3 170236Z 35006KT 06/01 A3015 RMK A01 T00580011  RH  071%=      5-min Rain = 0
KPD3 170237Z 34006KT 06/01 A3015 RMK A01 T00580011  RH  072%=      5-min Rain = 0
KPD3 170238Z 34006KT 06/01 A3015 RMK A01 T00580010  RH  072%=      5-min Rain = 0
KPD3 170239Z 33005KT 06/01 A3015 RMK A01 T00570010  RH  071%=      5-min Rain = 0
KPD3 170240Z 33005KT 06/01 A3015 RMK A01 T00570010  RH  071%=      5-min Rain = 0
KPD3 170241Z 33005KT 06/01 A3015 RMK A01 T00570010  RH  072%=      5-min Rain = 0
KPD3 170242Z 32005KT 06/01 A3016 RMK A01 T00570010  RH  072%=      5-min Rain = 0
KPD3 170243Z 33005KT 06/01 A3016 RMK A01 T00560011  RH  073%=      5-min Rain = 0
KPD3 170244Z 33005KT 06/01 A3016 RMK A01 T00550010  RH  073%=      5-min Rain = 0
KPD3 170245Z 34006KT 06/01 A3016 RMK A01 T00560011  RH  073%=      5-min Rain = 0
KPD3 170246Z 33005KT 06/01 A3016 RMK A01 T00550011  RH  073%=      5-min Rain = 0
KPD3 170247Z 34006KT 06/01 A3016 RMK A01 T00550011  RH  073%=      5-min Rain = 0
KPD3 170248Z 33005KT 05/01 A3016 RMK A01 T00540011  RH  074%=      5-min Rain = 0
KPD3 170249Z 33006KT 05/01 A3016 RMK A01 T00540011  RH  074%=      5-min Rain = 0
KPD3 170250Z 32005KT 05/01 A3016 RMK A01 T00540011  RH  074%=      5-min Rain = 0
KPD3 170251Z 33006KT 05/01 A3016 RMK A01 T00540011  RH  074%=      5-min Rain = 0
KPD3 170252Z 33005KT 05/01 A3016 RMK A01 T00530011  RH  074%=      5-min Rain = 0
KPD3 170253Z 33005KT 05/01 A3016 RMK A01 T00530011  RH  074%=      5-min Rain = 0
KPD3 170254Z 33005KT 05/01 A3017 RMK A01 T00530012  RH  074%=      5-min Rain = 0
KPD3 170255Z 33005KT 05/01 A3017 RMK A01 T00530012  RH  075%=      5-min Rain = 0
KPD3 170256Z 34005KT 05/01 A3017 RMK A01 T00530012  RH  075%=      5-min Rain = 0
KPD3 170257Z 34005KT 05/01 A3017 RMK A01 T00540012  RH  075%=      5-min Rain = 0
KPD3 170258Z 34005KT 05/01 A3017 RMK A01 T00540012  RH  074%=      5-min Rain = 0
KPD3 170259Z 34006KT 05/01 A3017 RMK A01 T00540012  RH  074%=      5-min Rain = 0
KPD3 170300Z 34006KT 05/01 A3017 RMK A01 T00540012  RH  074%=      5-min Rain = 0
KPD3 170301Z 34006KT 05/01 A3017 RMK A01 T00540012  RH  074%=      5-min Rain = 0
KPD3 170302Z 34006KT 05/01 A3017 RMK A01 T00540012  RH  075%=      5-min Rain = 0
KPD3 170303Z 34006KT 05/01 A3017 RMK A01 T00540012  RH  074%=      5-min Rain = 0
KPD3 170304Z 34006KT 06/01 A3017 RMK A01 T00550013  RH  074%=      5-min Rain = 0
KPD3 170305Z 33006KT 06/01 A3017 RMK A01 T00550013  RH  075%=      5-min Rain = 0
KPD3 170306Z 33006KT 06/01 A3017 RMK A01 T00550013  RH  075%=      5-min Rain = 0
KPD3 170307Z 34005KT 05/01 A3017 RMK A01 T00540013  RH  074%=      5-min Rain = 0
KPD3 170308Z 34006KT 05/01 A3017 RMK A01 T00540013  RH  075%=      5-min Rain = 0
KPD3 170309Z 33005KT 05/01 A3017 RMK A01 T00540013  RH  075%=      5-min Rain = 0
KPD3 170310Z 33005KT 05/01 A3017 RMK A01 T00540013  RH  075%=      5-min Rain = 0
KPD3 170311Z 33004KT 05/01 A3017 RMK A01 T00540013  RH  075%=      5-min Rain = 0
KPD3 170312Z 33004KT 05/01 A3017 RMK A01 T00540013  RH  075%=      5-min Rain = 0
KPD3 170313Z 32004KT 05/01 A3017 RMK A01 T00540014  RH  075%=      5-min Rain = 0
KPD3 170314Z 32004KT 05/01 A3018 RMK A01 T00520014  RH  076%=      5-min Rain = 0
KPD3 170315Z 31005KT 05/01 A3018 RMK A01 T00520014  RH  077%=      5-min Rain = 0
KPD3 170316Z 31005KT 05/01 A3018 RMK A01 T00500014  RH  077%=      5-min Rain = 0
KPD3 170317Z 31004KT 05/01 A3018 RMK A01 T00500014  RH  077%=      5-min Rain = 0
KPD3 170318Z 32005KT 05/01 A3018 RMK A01 T00490014  RH  078%=      5-min Rain = 0
KPD3 170319Z 32004KT 05/01 A3018 RMK A01 T00480014  RH  078%=      5-min Rain = 0
KPD3 170320Z 32005KT 05/01 A3018 RMK A01 T00480013  RH  078%=      5-min Rain = 0
KPD3 170321Z 32005KT 05/01 A3018 RMK A01 T00480013  RH  079%=      5-min Rain = 0
KPD3 170322Z 32005KT 05/01 A3018 RMK A01 T00470013  RH  079%=      5-min Rain = 0
KPD3 170323Z 31005KT 05/01 A3018 RMK A01 T00470014  RH  079%=      5-min Rain = 0
KPD3 170324Z 31005KT 05/01 A3018 RMK A01 T00460014  RH  080%=      5-min Rain = 0
KPD3 170325Z 32005KT 05/01 A3018 RMK A01 T00450014  RH  080%=      5-min Rain = 0
KPD3 170326Z 32005KT 05/01 A3018 RMK A01 T00450014  RH  080%=      5-min Rain = 0
KPD3 170327Z 32005KT 05/01 A3018 RMK A01 T00450014  RH  080%=      5-min Rain = 0
KPD3 170328Z 32005KT 04/01 A3018 RMK A01 T00440014  RH  081%=      5-min Rain = 0
KPD3 170329Z 32005KT 04/01 A3018 RMK A01 T00440014  RH  081%=      5-min Rain = 0
KPD3 170330Z 33005KT 04/01 A3018 RMK A01 T00440014  RH  081%=      5-min Rain = 0
KPD3 170331Z 33005KT 04/01 A3018 RMK A01 T00430014  RH  081%=      5-min Rain = 0
KPD3 170332Z 33005KT 04/01 A3018 RMK A01 T00430014  RH  082%=      5-min Rain = 0
KPD3 170333Z 33005KT 04/01 A3018 RMK A01 T00420014  RH  082%=      5-min Rain = 0
KPD3 170334Z 34006KT 04/01 A3018 RMK A01 T00420014  RH  082%=      5-min Rain = 0
KPD3 170335Z 34006KT 04/02 A3018 RMK A01 T00420015  RH  083%=      5-min Rain = 0
KPD3 170336Z 35006KT 04/02 A3018 RMK A01 T00420015  RH  083%=      5-min Rain = 0
KPD3 170337Z 35006KT 04/02 A3018 RMK A01 T00420015  RH  083%=      5-min Rain = 0
KPD3 170338Z 35006KT 04/01 A3018 RMK A01 T00420014  RH  082%=      5-min Rain = 0
KPD3 170339Z 36006KT 04/01 A3017 RMK A01 T00420014  RH  082%=      5-min Rain = 0
KPD3 170340Z 36006KT 04/01 A3017 RMK A01 T00430014  RH  081%=      5-min Rain = 0
KPD3 170341Z 00006KT 04/01 A3017 RMK A01 T00440014  RH  081%=      5-min Rain = 0
KPD3 170342Z 00006KT 04/01 A3017 RMK A01 T00440014  RH  081%=      5-min Rain = 0
KPD3 170343Z 00006KT 05/01 A3017 RMK A01 T00450014  RH  081%=      5-min Rain = 0
KPD3 170344Z 00006KT 04/01 A3017 RMK A01 T00440014  RH  081%=      5-min Rain = 0
KPD3 170345Z 00005KT 04/01 A3017 RMK A01 T00440014  RH  081%=      5-min Rain = 0
KPD3 170346Z 36005KT 04/01 A3017 RMK A01 T00440014  RH  081%=      5-min Rain = 0
KPD3 170347Z 36004KT 04/01 A3017 RMK A01 T00430014  RH  081%=      5-min Rain = 0
KPD3 170348Z 35004KT 04/01 A3017 RMK A01 T00430014  RH  081%=      5-min Rain = 0
KPD3 170349Z 35004KT 04/01 A3017 RMK A01 T00420014  RH  082%=      5-min Rain = 0
KPD3 170350Z 34004KT 04/01 A3017 RMK A01 T00420014  RH  082%=      5-min Rain = 0
KPD3 170351Z 34004KT 04/01 A3017 RMK A01 T00420014  RH  082%=      5-min Rain = 0
KPD3 170352Z 34004KT 04/01 A3017 RMK A01 T00430014  RH  081%=      5-min Rain = 0
KPD3 170353Z 34004KT 04/01 A3017 RMK A01 T00440014  RH  081%=      5-min Rain = 0
KPD3 170354Z 35004KT 04/01 A3017 RMK A01 T00440014  RH  081%=      5-min Rain = 0
KPD3 170355Z 35005KT 05/01 A3017 RMK A01 T00450014  RH  080%=      5-min Rain = 0
KPD3 170356Z 35005KT 05/01 A3017 RMK A01 T00450013  RH  080%=      5-min Rain = 0
KPD3 170357Z 00005KT 04/01 A3017 RMK A01 T00440014  RH  080%=      5-min Rain = 0
KPD3 170358Z 00006KT 04/01 A3017 RMK A01 T00430013  RH  081%=      5-min Rain = 0
KPD3 170359Z 00006KT 04/01 A3017 RMK A01 T00420013  RH  081%=      5-min Rain = 0
KPD3 170400Z 00007KT 04/01 A3016 RMK A01 T00420014  RH  082%=      5-min Rain = 0
KPD3 170401Z 00007KT 04/01 A3016 RMK A01 T00410014  RH  082%=      5-min Rain = 0
KPD3 170402Z 00007KT 04/01 A3016 RMK A01 T00410014  RH  083%=      5-min Rain = 0
KPD3 170403Z 00007KT 04/01 A3016 RMK A01 T00400014  RH  083%=      5-min Rain = 0
KPD3 170404Z 00007KT 04/01 A3016 RMK A01 T00400014  RH  083%=      5-min Rain = 0
KPD3 170405Z 00007KT 04/01 A3016 RMK A01 T00390014  RH  084%=      5-min Rain = 0
KPD3 170406Z 00007KT 04/01 A3016 RMK A01 T00390014  RH  084%=      5-min Rain = 0
KPD3 170407Z 00007KT 04/01 A3016 RMK A01 T00390014  RH  084%=      5-min Rain = 0
KPD3 170408Z 00006KT 04/01 A3016 RMK A01 T00390014  RH  084%=      5-min Rain = 0
KPD3 170409Z 00006KT 04/01 A3016 RMK A01 T00390014  RH  084%=      5-min Rain = 0
KPD3 170410Z 00005KT 04/01 A3016 RMK A01 T00380014  RH  084%=      5-min Rain = 0
KPD3 170411Z 00005KT 04/01 A3016 RMK A01 T00380014  RH  084%=      5-min Rain = 0
KPD3 170412Z 00005KT 04/01 A3016 RMK A01 T00380014  RH  084%=      5-min Rain = 0
KPD3 170413Z 36005KT 04/01 A3016 RMK A01 T00370014  RH  084%=      5-min Rain = 0
KPD3 170414Z 36005KT 04/01 A3016 RMK A01 T00370014  RH  085%=      5-min Rain = 0
KPD3 170415Z 36005KT 04/01 A3017 RMK A01 T00370014  RH  085%=      5-min Rain = 0
KPD3 170416Z 35005KT 04/01 A3016 RMK A01 T00370014  RH  085%=      5-min Rain = 0
KPD3 170417Z 35005KT 04/01 A3016 RMK A01 T00370013  RH  085%=      5-min Rain = 0
KPD3 170418Z 35005KT 04/01 A3016 RMK A01 T00370013  RH  085%=      5-min Rain = 0
KPD3 170419Z 35005KT 04/01 A3016 RMK A01 T00370013  RH  085%=      5-min Rain = 0
KPD3 170420Z 35005KT 04/01 A3016 RMK A01 T00360013  RH  085%=      5-min Rain = 0
KPD3 170421Z 36005KT 04/01 A3016 RMK A01 T00360013  RH  085%=      5-min Rain = 0
KPD3 170422Z 36005KT 04/01 A3016 RMK A01 T00350013  RH  085%=      5-min Rain = 0
KPD3 170423Z 00006KT 04/01 A3016 RMK A01 T00350013  RH  085%=      5-min Rain = 0
KPD3 170424Z 36006KT 04/01 A3016 RMK A01 T00350013  RH  085%=      5-min Rain = 0
KPD3 170425Z 36006KT 04/01 A3016 RMK A01 T00350012  RH  085%=      5-min Rain = 0
KPD3 170426Z 00006KT 03/01 A3016 RMK A01 T00340012  RH  086%=      5-min Rain = 0
KPD3 170427Z 36006KT 03/01 A3016 RMK A01 T00340012  RH  086%=      5-min Rain = 0
KPD3 170428Z 36006KT 03/01 A3016 RMK A01 T00340012  RH  086%=      5-min Rain = 0
KPD3 170429Z 35006KT 03/01 A3016 RMK A01 T00340012  RH  086%=      5-min Rain = 0
KPD3 170430Z 35006KT 03/01 A3016 RMK A01 T00340013  RH  086%=      5-min Rain = 0
KPD3 170431Z 35006KT 03/01 A3016 RMK A01 T00340013  RH  086%=      5-min Rain = 0
KPD3 170432Z 35007KT 03/01 A3016 RMK A01 T00340013  RH  086%=      5-min Rain = 0
KPD3 170433Z 35006KT 03/01 A3016 RMK A01 T00340013  RH  086%=      5-min Rain = 0
KPD3 170434Z 35007KT 04/01 A3016 RMK A01 T00350013  RH  086%=      5-min Rain = 0
KPD3 170435Z 35007KT 04/01 A3016 RMK A01 T00360014  RH  085%=      5-min Rain = 0
KPD3 170436Z 35007KT 04/01 A3016 RMK A01 T00370013  RH  085%=      5-min Rain = 0
KPD3 170437Z 35007KT 04/01 A3016 RMK A01 T00380014  RH  084%=      5-min Rain = 0
KPD3 170438Z 35008KT 04/01 A3016 RMK A01 T00390014  RH  084%=      5-min Rain = 0
KPD3 170439Z 35008KT 04/01 A3016 RMK A01 T00410014  RH  083%=      5-min Rain = 0
KPD3 170440Z 35007KT 04/01 A3016 RMK A01 T00420014  RH  082%=      5-min Rain = 0
KPD3 170441Z 35008KT 04/01 A3016 RMK A01 T00420014  RH  082%=      5-min Rain = 0
KPD3 170442Z 35008KT 04/01 A3016 RMK A01 T00430014  RH  081%=      5-min Rain = 0
KPD3 170443Z 36007KT 04/01 A3016 RMK A01 T00430013  RH  081%=      5-min Rain = 0
KPD3 170444Z 35008KT 04/01 A3016 RMK A01 T00430013  RH  081%=      5-min Rain = 0
KPD3 170445Z 35008KT 04/01 A3016 RMK A01 T00440013  RH  081%=      5-min Rain = 0
KPD3 170446Z 35008KT 04/01 A3016 RMK A01 T00440013  RH  080%=      5-min Rain = 0
KPD3 170447Z 35008KT 04/01 A3017 RMK A01 T00440013  RH  080%=      5-min Rain = 0
KPD3 170448Z 35008KT 04/01 A3017 RMK A01 T00440012  RH  080%=      5-min Rain = 0
KPD3 170449Z 35007KT 05/01 A3017 RMK A01 T00450012  RH  079%=      5-min Rain = 0
KPD3 170450Z 35007KT 05/01 A3017 RMK A01 T00450012  RH  079%=      5-min Rain = 0
KPD3 170451Z 35009KT 05/01 A3017 RMK A01 T00450012  RH  079%=      5-min Rain = 0
KPD3 170452Z 35008KT 05/01 A3017 RMK A01 T00460011  RH  078%=      5-min Rain = 0
KPD3 170453Z 35007KT 05/01 A3017 RMK A01 T00460011  RH  078%=      5-min Rain = 0
KPD3 170454Z 35008KT 05/01 A3017 RMK A01 T00450011  RH  078%=      5-min Rain = 0
KPD3 170455Z 35008KT 05/01 A3017 RMK A01 T00450011  RH  079%=      5-min Rain = 0
KPD3 170456Z 35008KT 05/01 A3017 RMK A01 T00450011  RH  079%=      5-min Rain = 0
KPD3 170457Z 35009KT 04/01 A3017 RMK A01 T00440011  RH  079%=      5-min Rain = 0
KPD3 170458Z 35007KT 04/01 A3017 RMK A01 T00440011  RH  079%=      5-min Rain = 0
KPD3 170459Z 35009KT 04/01 A3017 RMK A01 T00440011  RH  079%=      5-min Rain = 0

Page generated in 0.0654 seconds.